Wetterdaten: Samstag, 27.05.2023
Datum Zeit Temp. Aussen Temp. o. S. Temp +5cm Feuchte Auss Luftdruck Regen Sonnenschein Regendauer Solar Windben Empfang
27.05.2023 00:00 13,3 C 12,2 C 8,9 C 72 % 1028,9 hPa 0,0 l/m 0 min 0 min 0 W/m 9,7 km/h (2 Bft) 91,49 %
27.05.2023 00:02 13,3 C 12,2 C 8,9 C 72 % 1028,9 hPa 0,0 l/m 0 min 0 min 0 W/m 9,7 km/h (2 Bft) 97,37 %
27.05.2023 00:04 13,3 C 12,2 C 8,9 C 73 % 1028,8 hPa 0,0 l/m 0 min 0 min 0 W/m 6,4 km/h (2 Bft) 97,87 %
27.05.2023 00:07 13,2 C 12,2 C 8,9 C 73 % 1028,9 hPa 0,0 l/m 0 min 0 min 0 W/m 12,9 km/h (3 Bft) 97,87 %
27.05.2023 00:08 13,2 C 12,2 C 8,9 C 73 % 1028,9 hPa 0,0 l/m 0 min 0 min 0 W/m 16,1 km/h (3 Bft) 97,96 %
27.05.2023 00:12 13,1 C 12,2 C 8,9 C 73 % 1028,9 hPa 0,0 l/m 0 min 0 min 0 W/m 9,7 km/h (2 Bft) 95,83 %
27.05.2023 00:14 13,1 C 12,2 C 8,9 C 73 % 1028,9 hPa 0,0 l/m 0 min 0 min 0 W/m 12,9 km/h (3 Bft) 96,00 %
27.05.2023 00:16 13,1 C 12,2 C 8,9 C 73 % 1028,9 hPa 0,0 l/m 0 min 0 min 0 W/m 6,4 km/h (2 Bft) 95,74 %
27.05.2023 00:18 13,1 C 12,2 C 8,9 C 73 % 1028,9 hPa 0,0 l/m 0 min 0 min 0 W/m 6,4 km/h (2 Bft) 100,00 %
27.05.2023 00:20 13,0 C 12,2 C 8,9 C 73 % 1028,9 hPa 0,0 l/m 0 min 0 min 0 W/m 6,4 km/h (2 Bft) 97,87 %
27.05.2023 00:22 13,0 C 12,2 C 8,9 C 73 % 1028,9 hPa 0,0 l/m 0 min 0 min 0 W/m 6,4 km/h (2 Bft) 95,83 %
27.05.2023 00:24 12,9 C 12,2 C 8,9 C 74 % 1028,9 hPa 0,0 l/m 0 min 0 min 0 W/m 6,4 km/h (2 Bft) 93,62 %
27.05.2023 00:26 12,9 C 11,7 C 8,3 C 74 % 1028,9 hPa 0,0 l/m 0 min 0 min 0 W/m 6,4 km/h (2 Bft) 95,74 %
27.05.2023 00:28 12,9 C 11,7 C 8,3 C 74 % 1028,9 hPa 0,0 l/m 0 min 0 min 0 W/m 6,4 km/h (2 Bft) 95,65 %
27.05.2023 00:30 12,8 C 11,7 C 8,3 C 74 % 1028,9 hPa 0,0 l/m 0 min 0 min 0 W/m 9,7 km/h (2 Bft) 97,87 %
27.05.2023 00:32 12,8 C 11,7 C 8,3 C 74 % 1028,9 hPa 0,0 l/m 0 min 0 min 0 W/m 6,4 km/h (2 Bft) 97,87 %
27.05.2023 00:34 12,8 C 11,7 C 8,3 C 74 % 1028,9 hPa 0,0 l/m 0 min 0 min 0 W/m 12,9 km/h (3 Bft) 97,87 %
27.05.2023 00:36 12,7 C 11,7 C 8,3 C 74 % 1028,8 hPa 0,0 l/m 0 min 0 min 0 W/m 6,4 km/h (2 Bft) 97,14 %
27.05.2023 00:38 12,7 C 11,7 C 8,3 C 75 % 1028,8 hPa 0,0 l/m 0 min 0 min 0 W/m 9,7 km/h (2 Bft) 97,87 %
27.05.2023 00:40 12,7 C 11,7 C 8,3 C 75 % 1028,8 hPa 0,0 l/m 0 min 0 min 0 W/m 6,4 km/h (2 Bft) 98,28 %
27.05.2023 00:42 12,6 C 11,7 C 8,3 C 75 % 1028,8 hPa 0,0 l/m 0 min 0 min 0 W/m 12,9 km/h (3 Bft) 97,22 %
27.05.2023 00:44 12,6 C 11,7 C 8,3 C 75 % 1028,9 hPa 0,0 l/m 0 min 0 min 0 W/m 3,2 km/h (1 Bft) 97,83 %
27.05.2023 00:46 12,6 C 11,7 C 8,3 C 75 % 1028,9 hPa 0,0 l/m 0 min 0 min 0 W/m 9,7 km/h (2 Bft) 97,87 %
27.05.2023 00:48 12,6 C 11,7 C 8,3 C 75 % 1028,9 hPa 0,0 l/m 0 min 0 min 0 W/m 9,7 km/h (2 Bft) 94,83 %
27.05.2023 00:50 12,6 C 11,7 C 8,3 C 75 % 1028,9 hPa 0,0 l/m 0 min 0 min 0 W/m 6,4 km/h (2 Bft) 95,83 %
27.05.2023 00:52 12,5 C 11,7 C 8,3 C 75 % 1028,9 hPa 0,0 l/m 0 min 0 min 0 W/m 16,1 km/h (3 Bft) 97,87 %
27.05.2023 00:54 12,4 C 11,7 C 8,3 C 75 % 1028,9 hPa 0,0 l/m 0 min 0 min 0 W/m 12,9 km/h (3 Bft) 95,65 %
27.05.2023 00:56 12,4 C 11,7 C 8,3 C 75 % 1028,8 hPa 0,0 l/m 0 min 0 min 0 W/m 3,2 km/h (1 Bft) 95,74 %
27.05.2023 00:58 12,4 C 11,7 C 8,3 C 75 % 1028,9 hPa 0,0 l/m 0 min 0 min 0 W/m 6,4 km/h (2 Bft) 97,87 %
27.05.2023 01:00 12,4 C 11,7 C 7,8 C 75 % 1028,9 hPa 0,0 l/m 0 min 0 min 0 W/m 6,4 km/h (2 Bft) 97,87 %
27.05.2023 01:02 12,4 C 11,7 C 7,8 C 75 % 1028,9 hPa 0,0 l/m 0 min 0 min 0 W/m 12,9 km/h (3 Bft) 97,87 %
27.05.2023 01:04 12,3 C 11,7 C 7,8 C 75 % 1028,9 hPa 0,0 l/m 0 min 0 min 0 W/m 3,2 km/h (1 Bft) 97,92 %
27.05.2023 01:06 12,3 C 11,1 C 7,8 C 75 % 1028,9 hPa 0,0 l/m 0 min 0 min 0 W/m 3,2 km/h (1 Bft) 97,87 %
27.05.2023 01:08 12,3 C 11,1 C 7,8 C 75 % 1028,9 hPa 0,0 l/m 0 min 0 min 0 W/m 3,2 km/h (1 Bft) 100,00 %
27.05.2023 01:10 12,2 C 11,1 C 7,8 C 75 % 1028,9 hPa 0,0 l/m 0 min 0 min 0 W/m 6,4 km/h (2 Bft) 100,00 %
27.05.2023 01:12 12,2 C 11,1 C 7,8 C 76 % 1028,9 hPa 0,0 l/m 0 min 0 min 0 W/m 3,2 km/h (1 Bft) 97,87 %
27.05.2023 01:14 12,2 C 11,1 C 7,8 C 76 % 1028,9 hPa 0,0 l/m 0 min 0 min 0 W/m 9,7 km/h (2 Bft) 97,87 %
27.05.2023 01:16 12,1 C 11,1 C 7,8 C 76 % 1028,9 hPa 0,0 l/m 0 min 0 min 0 W/m 3,2 km/h (1 Bft) 95,74 %
27.05.2023 01:18 12,1 C 11,1 C 7,8 C 76 % 1028,9 hPa 0,0 l/m 0 min 0 min 0 W/m 3,2 km/h (1 Bft) 95,74 %
27.05.2023 01:20 12,1 C 11,1 C 7,8 C 76 % 1028,9 hPa 0,0 l/m 0 min 0 min 0 W/m 3,2 km/h (1 Bft) 97,87 %
27.05.2023 01:22 12,1 C 11,1 C 7,8 C 76 % 1028,9 hPa 0,0 l/m 0 min 0 min 0 W/m 3,2 km/h (1 Bft) 95,65 %
27.05.2023 01:24 12,0 C 11,1 C 7,8 C 76 % 1028,9 hPa 0,0 l/m 0 min 0 min 0 W/m 6,4 km/h (2 Bft) 95,74 %
27.05.2023 01:26 12,0 C 10,6 C 7,8 C 76 % 1028,9 hPa 0,0 l/m 0 min 0 min 0 W/m 3,2 km/h (1 Bft) 97,87 %
27.05.2023 01:28 11,9 C 10,6 C 7,8 C 77 % 1028,9 hPa 0,0 l/m 0 min 0 min 0 W/m 3,2 km/h (1 Bft) 95,74 %
27.05.2023 01:30 11,9 C 10,6 C 7,2 C 77 % 1028,9 hPa 0,0 l/m 0 min 0 min 0 W/m 6,4 km/h (2 Bft) 97,14 %
27.05.2023 01:32 11,8 C 10,6 C 7,2 C 77 % 1028,9 hPa 0,0 l/m 0 min 0 min 0 W/m 3,2 km/h (1 Bft) 95,74 %
27.05.2023 01:34 11,8 C 10,6 C 7,8 C 77 % 1028,9 hPa 0,0 l/m 0 min 0 min 0 W/m 6,4 km/h (2 Bft) 95,74 %
27.05.2023 01:36 11,8 C 10,6 C 7,2 C 77 % 1028,9 hPa 0,0 l/m 0 min 0 min 0 W/m 6,4 km/h (2 Bft) 95,74 %
27.05.2023 01:38 11,7 C 10,6 C 7,2 C 77 % 1028,9 hPa 0,0 l/m 0 min 0 min 0 W/m 9,7 km/h (2 Bft) 95,74 %
27.05.2023 01:40 11,7 C 10,6 C 7,2 C 78 % 1028,9 hPa 0,0 l/m 0 min 0 min 0 W/m 3,2 km/h (1 Bft) 95,65 %
27.05.2023 01:42 11,7 C 10,6 C 7,2 C 78 % 1028,8 hPa 0,0 l/m 0 min 0 min 0 W/m 3,2 km/h (1 Bft) 91,49 %
27.05.2023 01:44 11,6 C 10,6 C 7,2 C 78 % 1028,8 hPa 0,0 l/m 0 min 0 min 0 W/m 6,4 km/h (2 Bft) 93,62 %
27.05.2023 01:46 11,6 C 10,6 C 7,2 C 78 % 1028,8 hPa 0,0 l/m 0 min 0 min 0 W/m 6,4 km/h (2 Bft) 95,74 %
27.05.2023 01:48 11,6 C 10,6 C 7,2 C 78 % 1028,9 hPa 0,0 l/m 0 min 0 min 0 W/m 6,4 km/h (2 Bft) 97,87 %
27.05.2023 01:50 11,5 C 10,6 C 7,2 C 78 % 1028,8 hPa 0,0 l/m 0 min 0 min 0 W/m 3,2 km/h (1 Bft) 97,87 %
27.05.2023 01:52 11,5 C 10,6 C 7,2 C 78 % 1028,8 hPa 0,0 l/m 0 min 0 min 0 W/m 0,0 km/h (0 Bft) 97,87 %
27.05.2023 01:54 11,4 C 10,6 C 7,2 C 78 % 1028,8 hPa 0,0 l/m 0 min 0 min 0 W/m 3,2 km/h (1 Bft) 97,83 %
27.05.2023 01:56 11,4 C 10,6 C 7,2 C 78 % 1028,8 hPa 0,0 l/m 0 min 0 min 0 W/m 6,4 km/h (2 Bft) 97,87 %
27.05.2023 01:58 11,3 C 10,6 C 7,2 C 79 % 1028,8 hPa 0,0 l/m 0 min 0 min 0 W/m 6,4 km/h (2 Bft) 95,74 %
27.05.2023 02:00 11,3 C 10,0 C 7,2 C 79 % 1028,9 hPa 0,0 l/m 0 min 0 min 0 W/m 3,2 km/h (1 Bft) 97,87 %
27.05.2023 02:02 11,3 C 10,6 C 7,2 C 79 % 1028,8 hPa 0,0 l/m 0 min 0 min 0 W/m 6,4 km/h (2 Bft) 96,49 %
27.05.2023 02:04 11,3 C 10,0 C 7,2 C 79 % 1028,8 hPa 0,0 l/m 0 min 0 min 0 W/m 6,4 km/h (2 Bft) 97,87 %
27.05.2023 02:06 11,2 C 10,0 C 7,2 C 79 % 1028,8 hPa 0,0 l/m 0 min 0 min 0 W/m 9,7 km/h (2 Bft) 97,92 %
27.05.2023 02:08 11,2 C 10,0 C 7,2 C 79 % 1028,9 hPa 0,0 l/m 0 min 0 min 0 W/m 6,4 km/h (2 Bft) 97,83 %
27.05.2023 02:10 11,2 C 10,0 C 7,2 C 79 % 1028,9 hPa 0,0 l/m 0 min 0 min 0 W/m 6,4 km/h (2 Bft) 100,00 %
27.05.2023 02:17 11,1 C 10,0 C 6,7 C 80 % 1028,8 hPa 0,0 l/m 0 min 0 min 0 W/m 6,4 km/h (2 Bft) 100,00 %
27.05.2023 02:18 11,1 C 10,0 C 6,7 C 80 % 1028,8 hPa 0,0 l/m 0 min 0 min 0 W/m 6,4 km/h (2 Bft) 95,65 %
27.05.2023 02:20 11,1 C 10,0 C 6,7 C 80 % 1028,8 hPa 0,0 l/m 0 min 0 min 0 W/m 3,2 km/h (1 Bft) 100,00 %
27.05.2023 02:22 11,0 C 10,0 C 6,7 C 80 % 1028,7 hPa 0,0 l/m 0 min 0 min 0 W/m 3,2 km/h (1 Bft) 97,87 %
27.05.2023 02:24 11,0 C 10,0 C 6,7 C 80 % 1028,7 hPa 0,0 l/m 0 min 0 min 0 W/m 3,2 km/h (1 Bft) 100,00 %
27.05.2023 02:26 10,9 C 10,0 C 6,7 C 80 % 1028,7 hPa 0,0 l/m 0 min 0 min 0 W/m 6,4 km/h (2 Bft) 100,00 %
27.05.2023 02:28 10,9 C 10,0 C 6,7 C 80 % 1028,7 hPa 0,0 l/m 0 min 0 min 0 W/m 6,4 km/h (2 Bft) 100,00 %
27.05.2023 02:30 10,9 C 10,0 C 6,7 C 80 % 1028,7 hPa 0,0 l/m 0 min 0 min 0 W/m 6,4 km/h (2 Bft) 100,00 %
27.05.2023 02:32 10,9 C 10,0 C 6,7 C 81 % 1028,8 hPa 0,0 l/m 0 min 0 min 0 W/m 3,2 km/h (1 Bft) 100,00 %
27.05.2023 02:34 10,8 C 10,0 C 6,7 C 81 % 1028,7 hPa 0,0 l/m 0 min 0 min 0 W/m 6,4 km/h (2 Bft) 100,00 %
27.05.2023 02:36 10,8 C 10,0 C 6,7 C 81 % 1028,7 hPa 0,0 l/m 0 min 0 min 0 W/m 6,4 km/h (2 Bft) 100,00 %
27.05.2023 02:38 10,8 C 10,0 C 6,7 C 81 % 1028,7 hPa 0,0 l/m 0 min 0 min 0 W/m 9,7 km/h (2 Bft) 100,00 %
27.05.2023 02:40 10,8 C 10,0 C 6,7 C 81 % 1028,8 hPa 0,0 l/m 0 min 0 min 0 W/m 12,9 km/h (3 Bft) 98,15 %
27.05.2023 02:42 10,8 C 10,0 C 6,7 C 81 % 1028,7 hPa 0,0 l/m 0 min 0 min 0 W/m 12,9 km/h (3 Bft) 100,00 %
27.05.2023 02:44 10,7 C 10,0 C 6,7 C 81 % 1028,8 hPa 0,0 l/m 0 min 0 min 0 W/m 6,4 km/h (2 Bft) 100,00 %
27.05.2023 02:46 10,7 C 10,0 C 6,7 C 81 % 1028,8 hPa 0,0 l/m 0 min 0 min 0 W/m 6,4 km/h (2 Bft) 97,87 %
27.05.2023 02:48 10,7 C 10,0 C 6,7 C 81 % 1028,8 hPa 0,0 l/m 0 min 0 min 0 W/m 3,2 km/h (1 Bft) 100,00 %
27.05.2023 02:50 10,6 C 9,4 C 6,7 C 81 % 1028,8 hPa 0,0 l/m 0 min 0 min 0 W/m 6,4 km/h (2 Bft) 100,00 %
27.05.2023 02:52 10,6 C 9,4 C 6,7 C 81 % 1028,8 hPa 0,0 l/m 0 min 0 min 0 W/m 6,4 km/h (2 Bft) 97,87 %
27.05.2023 02:54 10,6 C 9,4 C 6,7 C 81 % 1028,8 hPa 0,0 l/m 0 min 0 min 0 W/m 9,7 km/h (2 Bft) 100,00 %
27.05.2023 02:56 10,6 C 9,4 C 6,7 C 81 % 1028,7 hPa 0,0 l/m 0 min 0 min 0 W/m 6,4 km/h (2 Bft) 97,87 %
27.05.2023 02:58 10,5 C 9,4 C 6,1 C 81 % 1028,8 hPa 0,0 l/m 0 min 0 min 0 W/m 6,4 km/h (2 Bft) 97,87 %
27.05.2023 03:00 10,5 C 9,4 C 6,1 C 81 % 1028,8 hPa 0,0 l/m 0 min 0 min 0 W/m 3,2 km/h (1 Bft) 97,37 %
27.05.2023 03:02 10,4 C 9,4 C 6,1 C 82 % 1028,8 hPa 0,0 l/m 0 min 0 min 0 W/m 12,9 km/h (3 Bft) 97,87 %
27.05.2023 03:04 10,4 C 9,4 C 6,1 C 82 % 1028,8 hPa 0,0 l/m 0 min 0 min 0 W/m 3,2 km/h (1 Bft) 97,87 %
27.05.2023 03:06 10,4 C 9,4 C 6,1 C 82 % 1028,7 hPa 0,0 l/m 0 min 0 min 0 W/m 6,4 km/h (2 Bft) 96,67 %
27.05.2023 03:08 10,4 C 9,4 C 6,1 C 82 % 1028,7 hPa 0,0 l/m 0 min 0 min 0 W/m 12,9 km/h (3 Bft) 100,00 %
27.05.2023 03:10 10,3 C 9,4 C 6,1 C 82 % 1028,8 hPa 0,0 l/m 0 min 0 min 0 W/m 6,4 km/h (2 Bft) 97,87 %
27.05.2023 03:12 10,3 C 9,4 C 6,1 C 82 % 1028,7 hPa 0,0 l/m 0 min 0 min 0 W/m 9,7 km/h (2 Bft) 97,83 %
27.05.2023 03:14 10,3 C 9,4 C 6,1 C 82 % 1028,7 hPa 0,0 l/m 0 min 0 min 0 W/m 6,4 km/h (2 Bft) 95,83 %
27.05.2023 03:16 10,3 C 9,4 C 6,1 C 82 % 1028,7 hPa 0,0 l/m 0 min 0 min 0 W/m 9,7 km/h (2 Bft) 97,87 %
27.05.2023 03:18 10,3 C 9,4 C 6,1 C 82 % 1028,7 hPa 0,0 l/m 0 min 0 min 0 W/m 9,7 km/h (2 Bft) 97,87 %
27.05.2023 03:20 10,3 C 9,4 C 6,1 C 82 % 1028,6 hPa 0,0 l/m 0 min 0 min 0 W/m 3,2 km/h (1 Bft) 97,87 %
27.05.2023 03:22 10,2 C 9,4 C 6,1 C 82 % 1028,6 hPa 0,0 l/m 0 min 0 min 0 W/m 9,7 km/h (2 Bft) 100,00 %
27.05.2023 03:24 10,2 C 9,4 C 6,1 C 82 % 1028,6 hPa 0,0 l/m 0 min 0 min 0 W/m 9,7 km/h (2 Bft) 100,00 %
27.05.2023 03:26 10,2 C 9,4 C 6,1 C 82 % 1028,6 hPa 0,0 l/m 0 min 0 min 0 W/m 6,4 km/h (2 Bft) 97,87 %
27.05.2023 03:28 10,2 C 9,4 C 6,1 C 82 % 1028,5 hPa 0,0 l/m 0 min 0 min 0 W/m 6,4 km/h (2 Bft) 100,00 %
27.05.2023 03:30 10,1 C 9,4 C 6,1 C 82 % 1028,5 hPa 0,0 l/m 0 min 0 min 0 W/m 3,2 km/h (1 Bft) 100,00 %
27.05.2023 03:32 10,1 C 9,4 C 6,1 C 82 % 1028,5 hPa 0,0 l/m 0 min 0 min 0 W/m 6,4 km/h (2 Bft) 100,00 %
27.05.2023 03:34 10,1 C 9,4 C 6,1 C 83 % 1028,5 hPa 0,0 l/m 0 min 0 min 0 W/m 6,4 km/h (2 Bft) 100,00 %
27.05.2023 03:36 10,1 C 8,9 C 6,1 C 82 % 1028,5 hPa 0,0 l/m 0 min 0 min 0 W/m 6,4 km/h (2 Bft) 97,78 %
27.05.2023 03:38 10,1 C 8,9 C 6,1 C 82 % 1028,5 hPa 0,0 l/m 0 min 0 min 0 W/m 3,2 km/h (1 Bft) 100,00 %
27.05.2023 03:40 10,1 C 8,9 C 6,1 C 82 % 1028,5 hPa 0,0 l/m 0 min 0 min 0 W/m 9,7 km/h (2 Bft) 97,83 %
27.05.2023 03:42 10,0 C 8,9 C 6,1 C 83 % 1028,5 hPa 0,0 l/m 0 min 0 min 0 W/m 6,4 km/h (2 Bft) 95,74 %
27.05.2023 03:44 10,0 C 8,9 C 6,1 C 83 % 1028,5 hPa 0,0 l/m 0 min 0 min 0 W/m 6,4 km/h (2 Bft) 93,62 %
27.05.2023 03:46 9,9 C 8,9 C 6,1 C 83 % 1028,5 hPa 0,0 l/m 0 min 0 min 0 W/m 9,7 km/h (2 Bft) 93,62 %
27.05.2023 03:48 9,9 C 8,9 C 6,1 C 83 % 1028,5 hPa 0,0 l/m 0 min 0 min 0 W/m 12,9 km/h (3 Bft) 95,74 %
27.05.2023 03:50 9,9 C 8,9 C 6,1 C 83 % 1028,4 hPa 0,0 l/m 0 min 0 min 0 W/m 3,2 km/h (1 Bft) 95,74 %
27.05.2023 03:52 9,9 C 8,9 C 5,6 C 83 % 1028,4 hPa 0,0 l/m 0 min 0 min 0 W/m 3,2 km/h (1 Bft) 93,48 %
27.05.2023 03:54 9,9 C 8,9 C 5,6 C 83 % 1028,4 hPa 0,0 l/m 0 min 0 min 0 W/m 3,2 km/h (1 Bft) 95,74 %
27.05.2023 03:56 9,9 C 8,9 C 5,6 C 83 % 1028,4 hPa 0,0 l/m 0 min 0 min 0 W/m 6,4 km/h (2 Bft) 93,62 %
27.05.2023 03:58 9,8 C 8,9 C 5,6 C 83 % 1028,4 hPa 0,0 l/m 0 min 0 min 0 W/m 19,3 km/h (3 Bft) 93,62 %
27.05.2023 04:00 9,8 C 8,9 C 5,6 C 83 % 1028,4 hPa 0,0 l/m 0 min 0 min 0 W/m 9,7 km/h (2 Bft) 95,74 %
27.05.2023 04:02 9,8 C 8,9 C 5,6 C 83 % 1028,3 hPa 0,0 l/m 0 min 0 min 0 W/m 6,4 km/h (2 Bft) 95,74 %
27.05.2023 04:04 9,8 C 8,9 C 5,6 C 84 % 1028,4 hPa 0,0 l/m 0 min 0 min 0 W/m 6,4 km/h (2 Bft) 95,74 %
27.05.2023 04:06 9,8 C 8,9 C 5,6 C 84 % 1028,4 hPa 0,0 l/m 0 min 0 min 0 W/m 3,2 km/h (1 Bft) 98,31 %
27.05.2023 04:08 9,7 C 8,9 C 5,6 C 84 % 1028,4 hPa 0,0 l/m 0 min 0 min 0 W/m 3,2 km/h (1 Bft) 94,29 %
27.05.2023 04:10 9,7 C 8,9 C 5,6 C 84 % 1028,4 hPa 0,0 l/m 0 min 0 min 0 W/m 6,4 km/h (2 Bft) 95,74 %
27.05.2023 04:12 9,7 C 8,9 C 5,6 C 84 % 1028,4 hPa 0,0 l/m 0 min 0 min 0 W/m 6,4 km/h (2 Bft) 95,74 %
27.05.2023 04:14 9,7 C 8,9 C 5,6 C 84 % 1028,4 hPa 0,0 l/m 0 min 0 min 0 W/m 6,4 km/h (2 Bft) 95,74 %
27.05.2023 04:16 9,6 C 8,9 C 5,6 C 84 % 1028,4 hPa 0,0 l/m 0 min 0 min 0 W/m 6,4 km/h (2 Bft) 95,74 %
27.05.2023 04:18 9,6 C 8,3 C 5,6 C 84 % 1028,4 hPa 0,0 l/m 0 min 0 min 0 W/m 6,4 km/h (2 Bft) 97,87 %
27.05.2023 04:20 9,6 C 8,3 C 5,6 C 84 % 1028,4 hPa 0,0 l/m 0 min 0 min 0 W/m 6,4 km/h (2 Bft) 97,83 %
27.05.2023 04:22 9,6 C 8,3 C 5,6 C 84 % 1028,4 hPa 0,0 l/m 0 min 0 min 0 W/m 6,4 km/h (2 Bft) 97,87 %
27.05.2023 04:24 9,5 C 8,3 C 5,6 C 84 % 1028,4 hPa 0,0 l/m 0 min 0 min 0 W/m 6,4 km/h (2 Bft) 97,96 %
27.05.2023 04:26 9,5 C 8,3 C 5,0 C 85 % 1028,4 hPa 0,0 l/m 0 min 0 min 0 W/m 6,4 km/h (2 Bft) 97,87 %
27.05.2023 04:28 9,4 C 8,3 C 5,6 C 85 % 1028,4 hPa 0,0 l/m 0 min 0 min 0 W/m 12,9 km/h (3 Bft) 97,87 %
27.05.2023 04:30 9,4 C 8,3 C 5,6 C 85 % 1028,4 hPa 0,0 l/m 0 min 0 min 0 W/m 16,1 km/h (3 Bft) 95,74 %
27.05.2023 04:32 9,4 C 8,3 C 5,0 C 85 % 1028,4 hPa 0,0 l/m 0 min 0 min 0 W/m 6,4 km/h (2 Bft) 95,74 %
27.05.2023 04:34 9,4 C 8,3 C 5,0 C 85 % 1028,4 hPa 0,0 l/m 0 min 0 min 0 W/m 9,7 km/h (2 Bft) 97,83 %
27.05.2023 04:36 9,3 C 8,3 C 5,0 C 85 % 1028,4 hPa 0,0 l/m 0 min 0 min 0 W/m 6,4 km/h (2 Bft) 95,74 %
27.05.2023 04:38 9,3 C 8,3 C 5,0 C 85 % 1028,3 hPa 0,0 l/m 0 min 0 min 0 W/m 6,4 km/h (2 Bft) 93,62 %
27.05.2023 04:40 9,3 C 8,3 C 5,0 C 85 % 1028,3 hPa 0,0 l/m 0 min 0 min 0 W/m 3,2 km/h (1 Bft) 95,74 %
27.05.2023 04:42 9,3 C 8,3 C 5,0 C 85 % 1028,3 hPa 0,0 l/m 0 min 0 min 0 W/m 9,7 km/h (2 Bft) 95,74 %
27.05.2023 04:44 9,3 C 8,3 C 5,0 C 85 % 1028,4 hPa 0,0 l/m 0 min 0 min 0 W/m 6,4 km/h (2 Bft) 93,62 %
27.05.2023 04:46 9,2 C 8,3 C 5,0 C 86 % 1028,4 hPa 0,0 l/m 0 min 0 min 0 W/m 9,7 km/h (2 Bft) 97,83 %
27.05.2023 04:48 9,2 C 8,3 C 5,0 C 86 % 1028,4 hPa 0,0 l/m 0 min 0 min 0 W/m 12,9 km/h (3 Bft) 97,87 %
27.05.2023 04:50 9,2 C 8,3 C 5,0 C 86 % 1028,3 hPa 0,0 l/m 0 min 0 min 0 W/m 6,4 km/h (2 Bft) 95,74 %
27.05.2023 04:52 9,2 C 8,3 C 5,0 C 86 % 1028,4 hPa 0,0 l/m 0 min 0 min 0 W/m 6,4 km/h (2 Bft) 95,74 %
27.05.2023 04:54 9,1 C 8,3 C 5,0 C 86 % 1028,4 hPa 0,0 l/m 0 min 0 min 0 W/m 6,4 km/h (2 Bft) 97,87 %
27.05.2023 04:56 9,1 C 8,3 C 5,0 C 86 % 1028,3 hPa 0,0 l/m 0 min 0 min 0 W/m 9,7 km/h (2 Bft) 97,87 %
27.05.2023 04:58 9,1 C 8,3 C 5,0 C 86 % 1028,3 hPa 0,0 l/m 0 min 0 min 0 W/m 9,7 km/h (2 Bft) 97,87 %
27.05.2023 05:00 9,1 C 7,8 C 5,0 C 86 % 1028,3 hPa 0,0 l/m 0 min 0 min 0 W/m 6,4 km/h (2 Bft) 93,48 %
27.05.2023 05:02 9,1 C 7,8 C 5,0 C 86 % 1028,3 hPa 0,0 l/m 0 min 0 min 0 W/m 6,4 km/h (2 Bft) 95,74 %
27.05.2023 05:04 9,0 C 7,8 C 5,0 C 86 % 1028,3 hPa 0,0 l/m 0 min 0 min 0 W/m 6,4 km/h (2 Bft) 97,92 %
27.05.2023 05:06 9,0 C 7,8 C 5,0 C 86 % 1028,4 hPa 0,0 l/m 0 min 0 min 0 W/m 3,2 km/h (1 Bft) 97,87 %
27.05.2023 05:08 8,9 C 7,8 C 4,4 C 87 % 1028,3 hPa 0,0 l/m 0 min 0 min 0 W/m 6,4 km/h (2 Bft) 100,00 %
27.05.2023 05:10 8,9 C 7,8 C 4,4 C 87 % 1028,3 hPa 0,0 l/m 0 min 0 min 0 W/m 3,2 km/h (1 Bft) 100,00 %
27.05.2023 05:12 8,9 C 7,8 C 4,4 C 87 % 1028,3 hPa 0,0 l/m 0 min 0 min 0 W/m 6,4 km/h (2 Bft) 95,74 %
27.05.2023 05:14 8,8 C 7,8 C 4,4 C 87 % 1028,3 hPa 0,0 l/m 0 min 0 min 0 W/m 6,4 km/h (2 Bft) 100,00 %
27.05.2023 05:16 8,8 C 7,8 C 4,4 C 87 % 1028,4 hPa 0,0 l/m 0 min 0 min 0 W/m 3,2 km/h (1 Bft) 100,00 %
27.05.2023 05:18 8,8 C 7,8 C 4,4 C 87 % 1028,3 hPa 0,0 l/m 0 min 0 min 0 W/m 6,4 km/h (2 Bft) 100,00 %
27.05.2023 05:20 8,7 C 7,8 C 4,4 C 87 % 1028,3 hPa 0,0 l/m 0 min 0 min 0 W/m 6,4 km/h (2 Bft) 100,00 %
27.05.2023 05:22 8,7 C 7,8 C 4,4 C 87 % 1028,3 hPa 0,0 l/m 0 min 0 min 0 W/m 3,2 km/h (1 Bft) 97,87 %
27.05.2023 05:24 8,7 C 7,8 C 4,4 C 87 % 1028,3 hPa 0,0 l/m 0 min 0 min 0 W/m 6,4 km/h (2 Bft) 100,00 %
27.05.2023 05:26 8,7 C 7,8 C 4,4 C 87 % 1028,2 hPa 0,0 l/m 0 min 0 min 0 W/m 3,2 km/h (1 Bft) 97,87 %
27.05.2023 05:28 8,6 C 7,8 C 4,4 C 87 % 1028,3 hPa 0,0 l/m 0 min 0 min 0 W/m 6,4 km/h (2 Bft) 97,83 %
27.05.2023 05:30 8,6 C 7,8 C 4,4 C 87 % 1028,3 hPa 0,0 l/m 0 min 0 min 0 W/m 3,2 km/h (1 Bft) 100,00 %
27.05.2023 05:32 8,6 C 7,8 C 4,4 C 87 % 1028,2 hPa 0,0 l/m 0 min 0 min 0 W/m 3,2 km/h (1 Bft) 100,00 %
27.05.2023 05:34 8,6 C 7,8 C 4,4 C 88 % 1028,2 hPa 0,0 l/m 0 min 0 min 0 W/m 6,4 km/h (2 Bft) 97,87 %
27.05.2023 05:36 8,5 C 7,8 C 4,4 C 88 % 1028,3 hPa 0,0 l/m 0 min 0 min 1 W/m 6,4 km/h (2 Bft) 100,00 %
27.05.2023 05:38 8,5 C 7,8 C 4,4 C 88 % 1028,2 hPa 0,0 l/m 0 min 0 min 5 W/m 6,4 km/h (2 Bft) 100,00 %
27.05.2023 05:40 8,5 C 7,8 C 4,4 C 88 % 1028,2 hPa 0,0 l/m 0 min 0 min 5 W/m 3,2 km/h (1 Bft) 100,00 %
27.05.2023 05:42 8,4 C 7,8 C 4,4 C 88 % 1028,2 hPa 0,0 l/m 0 min 0 min 6 W/m 6,4 km/h (2 Bft) 100,00 %
27.05.2023 05:44 8,4 C 7,8 C 4,4 C 88 % 1028,1 hPa 0,0 l/m 0 min 0 min 7 W/m 6,4 km/h (2 Bft) 97,87 %
27.05.2023 05:46 8,4 C 7,8 C 4,4 C 88 % 1028,1 hPa 0,0 l/m 0 min 0 min 8 W/m 3,2 km/h (1 Bft) 100,00 %
27.05.2023 05:48 8,4 C 7,8 C 4,4 C 88 % 1028,2 hPa 0,0 l/m 0 min 0 min 9 W/m 6,4 km/h (2 Bft) 97,87 %
27.05.2023 05:50 8,4 C 7,8 C 4,4 C 88 % 1028,2 hPa 0,0 l/m 0 min 0 min 10 W/m 3,2 km/h (1 Bft) 97,87 %
27.05.2023 05:52 8,4 C 7,8 C 4,4 C 88 % 1028,1 hPa 0,0 l/m 0 min 0 min 11 W/m 9,7 km/h (2 Bft) 97,87 %
27.05.2023 05:54 8,4 C 7,8 C 4,4 C 88 % 1028,1 hPa 0,0 l/m 0 min 0 min 11 W/m 9,7 km/h (2 Bft) 97,87 %
27.05.2023 05:56 8,4 C 7,8 C 4,4 C 89 % 1028,1 hPa 0,0 l/m 0 min 0 min 12 W/m 3,2 km/h (1 Bft) 97,83 %
27.05.2023 05:58 8,3 C 7,8 C 4,4 C 89 % 1028,1 hPa 0,0 l/m 0 min 0 min 12 W/m 3,2 km/h (1 Bft) 97,87 %
27.05.2023 06:00 8,3 C 7,8 C 4,4 C 89 % 1028,1 hPa 0,0 l/m 0 min 0 min 14 W/m 6,4 km/h (2 Bft) 97,87 %
27.05.2023 06:02 8,3 C 7,8 C 4,4 C 89 % 1028,2 hPa 0,0 l/m 0 min 0 min 15 W/m 6,4 km/h (2 Bft) 95,74 %
27.05.2023 06:04 8,3 C 7,8 C 4,4 C 89 % 1028,2 hPa 0,0 l/m 0 min 0 min 16 W/m 6,4 km/h (2 Bft) 95,83 %
27.05.2023 06:08 8,3 C 7,8 C 4,4 C 89 % 1028,3 hPa 0,0 l/m 0 min 0 min 17 W/m 6,4 km/h (2 Bft) 98,78 %
27.05.2023 06:10 8,3 C 7,8 C 4,4 C 89 % 1028,2 hPa 0,0 l/m 0 min 0 min 19 W/m 9,7 km/h (2 Bft) 95,74 %
27.05.2023 06:12 8,3 C 7,8 C 4,4 C 89 % 1028,3 hPa 0,0 l/m 0 min 0 min 19 W/m 6,4 km/h (2 Bft) 95,74 %
27.05.2023 06:14 8,4 C 7,8 C 4,4 C 89 % 1028,2 hPa 0,0 l/m 0 min 0 min 20 W/m 3,2 km/h (1 Bft) 95,65 %
27.05.2023 06:16 8,4 C 7,8 C 4,4 C 89 % 1028,2 hPa 0,0 l/m 0 min 0 min 21 W/m 3,2 km/h (1 Bft) 95,74 %
27.05.2023 06:18 8,4 C 7,8 C 4,4 C 89 % 1028,2 hPa 0,0 l/m 0 min 0 min 22 W/m 6,4 km/h (2 Bft) 95,74 %
27.05.2023 06:20 8,4 C 7,8 C 4,4 C 89 % 1028,2 hPa 0,0 l/m 0 min 0 min 23 W/m 3,2 km/h (1 Bft) 95,74 %
27.05.2023 06:22 8,4 C 7,8 C 4,4 C 89 % 1028,2 hPa 0,0 l/m 0 min 0 min 23 W/m 6,4 km/h (2 Bft) 95,74 %
27.05.2023 06:24 8,4 C 7,8 C 4,4 C 89 % 1028,2 hPa 0,0 l/m 0 min 0 min 25 W/m 3,2 km/h (1 Bft) 97,87 %
27.05.2023 06:26 8,4 C 7,8 C 4,4 C 89 % 1028,2 hPa 0,0 l/m 0 min 0 min 25 W/m 6,4 km/h (2 Bft) 97,87 %
27.05.2023 06:28 8,4 C 7,8 C 4,4 C 89 % 1028,2 hPa 0,0 l/m 0 min 0 min 26 W/m 6,4 km/h (2 Bft) 97,83 %
27.05.2023 06:30 8,4 C 7,8 C 4,4 C 89 % 1028,2 hPa 0,0 l/m 0 min 0 min 27 W/m 3,2 km/h (1 Bft) 97,87 %
27.05.2023 06:32 8,4 C 7,8 C 5,0 C 89 % 1028,2 hPa 0,0 l/m 0 min 0 min 28 W/m 3,2 km/h (1 Bft) 95,74 %
27.05.2023 06:34 8,4 C 7,8 C 5,0 C 89 % 1028,2 hPa 0,0 l/m 0 min 0 min 28 W/m 6,4 km/h (2 Bft) 95,74 %
27.05.2023 06:36 8,4 C 7,8 C 5,0 C 89 % 1028,2 hPa 0,0 l/m 0 min 0 min 30 W/m 12,9 km/h (3 Bft) 97,87 %
27.05.2023 06:38 8,4 C 7,8 C 5,0 C 89 % 1028,2 hPa 0,0 l/m 0 min 0 min 30 W/m 3,2 km/h (1 Bft) 97,87 %
27.05.2023 06:40 8,5 C 7,8 C 5,0 C 89 % 1028,2 hPa 0,0 l/m 0 min 0 min 32 W/m 6,4 km/h (2 Bft) 97,87 %
27.05.2023 06:42 8,5 C 8,3 C 5,0 C 89 % 1028,2 hPa 0,0 l/m 0 min 0 min 32 W/m 6,4 km/h (2 Bft) 100,00 %
27.05.2023 06:44 8,6 C 8,3 C 5,0 C 89 % 1028,1 hPa 0,0 l/m 0 min 0 min 33 W/m 0,0 km/h (0 Bft) 100,00 %
27.05.2023 06:46 8,6 C 8,3 C 5,0 C 89 % 1028,1 hPa 0,0 l/m 0 min 0 min 33 W/m 3,2 km/h (1 Bft) 100,00 %
27.05.2023 06:48 8,6 C 8,3 C 5,0 C 90 % 1028,1 hPa 0,0 l/m 0 min 0 min 35 W/m 6,4 km/h (2 Bft) 100,00 %
27.05.2023 06:50 8,6 C 8,3 C 5,0 C 90 % 1028,1 hPa 0,0 l/m 0 min 0 min 36 W/m 6,4 km/h (2 Bft) 100,00 %
27.05.2023 06:52 8,6 C 8,3 C 5,0 C 90 % 1028,1 hPa 0,0 l/m 0 min 0 min 37 W/m 6,4 km/h (2 Bft) 100,00 %
27.05.2023 06:54 8,7 C 8,3 C 5,0 C 90 % 1028,1 hPa 0,0 l/m 0 min 0 min 39 W/m 12,9 km/h (3 Bft) 100,00 %
27.05.2023 06:56 8,7 C 8,3 C 5,0 C 90 % 1028,1 hPa 0,0 l/m 0 min 0 min 39 W/m 9,7 km/h (2 Bft) 97,83 %
27.05.2023 06:58 8,7 C 8,3 C 5,0 C 90 % 1028,1 hPa 0,0 l/m 0 min 0 min 40 W/m 6,4 km/h (2 Bft) 100,00 %
27.05.2023 07:00 8,7 C 8,3 C 5,0 C 90 % 1028,1 hPa 0,0 l/m 0 min 0 min 40 W/m 6,4 km/h (2 Bft) 100,00 %
27.05.2023 07:02 8,8 C 8,3 C 5,0 C 90 % 1028,1 hPa 0,0 l/m 0 min 0 min 42 W/m 12,9 km/h (3 Bft) 98,18 %
27.05.2023 07:00 8,7 C 8,3 C 5,0 C 90 % 1028,1 hPa 0,0 l/m 0 min 0 min 40 W/m 9,7 km/h (2 Bft) 100,00 %
27.05.2023 07:05 8,8 C 8,3 C 5,0 C 90 % 1028,1 hPa 0,0 l/m 0 min 0 min 42 W/m 12,9 km/h (3 Bft) 100,00 %
27.05.2023 07:11 8,8 C 8,9 C 5,0 C 90 % 1028,1 hPa 0,0 l/m 0 min 0 min 46 W/m 19,3 km/h (3 Bft) 100,00 %
27.05.2023 07:12 8,9 C 8,9 C 5,0 C 90 % 1028,1 hPa 0,0 l/m 0 min 0 min 47 W/m 6,4 km/h (2 Bft) 100,00 %
27.05.2023 07:17 9,0 C 8,9 C 5,0 C 90 % 1028,1 hPa 0,0 l/m 0 min 0 min 48 W/m 9,7 km/h (2 Bft) 96,88 %
27.05.2023 07:18 9,0 C 8,9 C 5,0 C 90 % 1028,1 hPa 0,0 l/m 0 min 0 min 51 W/m 6,4 km/h (2 Bft) 100,00 %
27.05.2023 07:20 9,1 C 8,9 C 5,0 C 89 % 1028,0 hPa 0,0 l/m 0 min 0 min 51 W/m 6,4 km/h (2 Bft) 97,87 %
27.05.2023 07:22 9,1 C 8,9 C 5,0 C 90 % 1028,0 hPa 0,0 l/m 0 min 0 min 52 W/m 12,9 km/h (3 Bft) 100,00 %
27.05.2023 07:24 9,1 C 8,9 C 5,0 C 89 % 1028,0 hPa 0,0 l/m 0 min 0 min 53 W/m 6,4 km/h (2 Bft) 95,74 %
27.05.2023 07:26 9,2 C 8,9 C 5,6 C 89 % 1028,0 hPa 0,0 l/m 0 min 0 min 54 W/m 6,4 km/h (2 Bft) 97,87 %
27.05.2023 07:28 9,2 C 9,4 C 5,6 C 89 % 1028,0 hPa 0,0 l/m 0 min 0 min 54 W/m 6,4 km/h (2 Bft) 95,74 %
27.05.2023 07:30 9,3 C 9,4 C 5,6 C 89 % 1028,0 hPa 0,0 l/m 0 min 0 min 56 W/m 6,4 km/h (2 Bft) 93,62 %
27.05.2023 07:32 9,3 C 9,4 C 5,6 C 89 % 1028,0 hPa 0,0 l/m 0 min 0 min 58 W/m 6,4 km/h (2 Bft) 97,83 %
27.05.2023 07:34 9,4 C 9,4 C 5,6 C 89 % 1027,9 hPa 0,0 l/m 0 min 0 min 59 W/m 16,1 km/h (3 Bft) 97,87 %
27.05.2023 07:36 9,4 C 9,4 C 5,6 C 89 % 1027,9 hPa 0,0 l/m 0 min 0 min 60 W/m 6,4 km/h (2 Bft) 95,74 %
27.05.2023 07:38 9,4 C 9,4 C 5,6 C 89 % 1027,9 hPa 0,0 l/m 0 min 0 min 62 W/m 9,7 km/h (2 Bft) 97,87 %
27.05.2023 07:40 9,5 C 9,4 C 5,6 C 89 % 1028,0 hPa 0,0 l/m 0 min 0 min 63 W/m 9,7 km/h (2 Bft) 95,74 %
27.05.2023 07:42 9,6 C 9,4 C 6,1 C 89 % 1028,0 hPa 0,0 l/m 0 min 0 min 64 W/m 9,7 km/h (2 Bft) 95,74 %
27.05.2023 07:44 9,6 C 9,4 C 6,1 C 88 % 1028,0 hPa 0,0 l/m 0 min 0 min 65 W/m 12,9 km/h (3 Bft) 95,65 %
27.05.2023 07:46 9,7 C 9,4 C 6,1 C 88 % 1028,0 hPa 0,0 l/m 0 min 0 min 66 W/m 16,1 km/h (3 Bft) 95,74 %
27.05.2023 07:48 9,7 C 9,4 C 6,1 C 88 % 1028,0 hPa 0,0 l/m 0 min 0 min 67 W/m 6,4 km/h (2 Bft) 95,74 %
27.05.2023 07:50 9,8 C 10,0 C 6,1 C 88 % 1028,0 hPa 0,0 l/m 0 min 0 min 69 W/m 9,7 km/h (2 Bft) 95,74 %
27.05.2023 07:52 9,8 C 10,0 C 6,1 C 88 % 1028,0 hPa 0,0 l/m 0 min 0 min 81 W/m 12,9 km/h (3 Bft) 93,62 %
27.05.2023 07:54 9,9 C 10,0 C 6,1 C 88 % 1028,0 hPa 0,0 l/m 2 min 0 min 180 W/m 6,4 km/h (2 Bft) 95,74 %
27.05.2023 07:56 9,9 C 10,0 C 6,1 C 88 % 1028,0 hPa 0,0 l/m 2 min 0 min 263 W/m 6,4 km/h (2 Bft) 91,49 %
27.05.2023 07:58 10,0 C 10,6 C 6,7 C 88 % 1028,0 hPa 0,0 l/m 2 min 0 min 272 W/m 9,7 km/h (2 Bft) 93,48 %
27.05.2023 08:00 10,1 C 10,6 C 6,7 C 88 % 1028,0 hPa 0,0 l/m 2 min 0 min 278 W/m 12,9 km/h (3 Bft) 93,62 %
27.05.2023 08:02 10,2 C 10,6 C 6,7 C 87 % 1028,0 hPa 0,0 l/m 2 min 0 min 285 W/m 12,9 km/h (3 Bft) 89,36 %
27.05.2023 08:04 10,2 C 12,2 C 6,7 C 87 % 1028,0 hPa 0,0 l/m 2 min 0 min 289 W/m 6,4 km/h (2 Bft) 95,74 %
27.05.2023 08:06 10,4 C 12,8 C 6,7 C 87 % 1028,0 hPa 0,0 l/m 2 min 0 min 298 W/m 9,7 km/h (2 Bft) 96,61 %
27.05.2023 08:08 10,5 C 13,9 C 6,7 C 87 % 1028,0 hPa 0,0 l/m 2 min 0 min 302 W/m 6,4 km/h (2 Bft) 91,67 %
27.05.2023 08:10 10,6 C 13,9 C 6,7 C 87 % 1028,0 hPa 0,0 l/m 2 min 0 min 288 W/m 16,1 km/h (3 Bft) 97,87 %
27.05.2023 08:12 10,7 C 14,4 C 6,7 C 86 % 1027,9 hPa 0,0 l/m 2 min 0 min 251 W/m 9,7 km/h (2 Bft) 93,48 %
27.05.2023 08:14 10,8 C 15,0 C 6,7 C 86 % 1027,9 hPa 0,0 l/m 2 min 0 min 248 W/m 9,7 km/h (2 Bft) 97,87 %
27.05.2023 08:16 10,9 C 14,4 C 7,2 C 86 % 1027,9 hPa 0,0 l/m 2 min 0 min 232 W/m 9,7 km/h (2 Bft) 97,87 %
27.05.2023 08:18 11,0 C 15,0 C 7,2 C 85 % 1027,9 hPa 0,0 l/m 2 min 0 min 323 W/m 9,7 km/h (2 Bft) 93,62 %
27.05.2023 08:20 11,2 C 15,0 C 7,2 C 85 % 1028,0 hPa 0,0 l/m 2 min 0 min 334 W/m 6,4 km/h (2 Bft) 93,62 %
27.05.2023 08:22 11,3 C 15,6 C 7,2 C 84 % 1027,9 hPa 0,0 l/m 2 min 0 min 340 W/m 9,7 km/h (2 Bft) 93,62 %
27.05.2023 08:24 11,4 C 16,1 C 7,2 C 84 % 1028,0 hPa 0,0 l/m 2 min 0 min 347 W/m 16,1 km/h (3 Bft) 94,59 %
27.05.2023 08:26 11,6 C 16,7 C 7,2 C 84 % 1027,9 hPa 0,0 l/m 2 min 0 min 351 W/m 6,4 km/h (2 Bft) 95,74 %
27.05.2023 08:28 11,7 C 16,7 C 7,2 C 83 % 1027,9 hPa 0,0 l/m 2 min 0 min 357 W/m 9,7 km/h (2 Bft) 100,00 %
27.05.2023 08:30 11,8 C 17,2 C 7,2 C 83 % 1027,8 hPa 0,0 l/m 2 min 0 min 366 W/m 9,7 km/h (2 Bft) 91,49 %
27.05.2023 08:32 12,1 C 17,8 C 7,2 C 83 % 1027,8 hPa 0,0 l/m 2 min 0 min 372 W/m 6,4 km/h (2 Bft) 95,74 %
27.05.2023 08:34 12,3 C 18,3 C 7,2 C 82 % 1027,8 hPa 0,0 l/m 2 min 0 min 378 W/m 6,4 km/h (2 Bft) 95,74 %
27.05.2023 08:36 12,5 C 18,3 C 9,4 C 82 % 1027,7 hPa 0,0 l/m 2 min 0 min 385 W/m 6,4 km/h (2 Bft) 95,65 %
27.05.2023 08:38 12,7 C 18,9 C 10,0 C 81 % 1027,8 hPa 0,0 l/m 2 min 0 min 392 W/m 12,9 km/h (3 Bft) 93,62 %
27.05.2023 08:40 12,8 C 18,9 C 10,0 C 80 % 1027,8 hPa 0,0 l/m 2 min 0 min 399 W/m 9,7 km/h (2 Bft) 95,74 %
27.05.2023 08:42 13,1 C 19,4 C 10,0 C 80 % 1027,7 hPa 0,0 l/m 2 min 0 min 405 W/m 6,4 km/h (2 Bft) 97,87 %
27.05.2023 08:44 13,2 C 19,4 C 10,6 C 79 % 1027,7 hPa 0,0 l/m 2 min 0 min 411 W/m 6,4 km/h (2 Bft) 97,87 %
27.05.2023 08:46 13,4 C 20,0 C 10,6 C 78 % 1027,7 hPa 0,0 l/m 2 min 0 min 415 W/m 9,7 km/h (2 Bft) 97,87 %
27.05.2023 08:48 13,6 C 20,0 C 10,6 C 78 % 1027,6 hPa 0,0 l/m 2 min 0 min 421 W/m 6,4 km/h (2 Bft) 95,74 %
27.05.2023 08:50 13,8 C 20,6 C 10,6 C 78 % 1027,7 hPa 0,0 l/m 2 min 0 min 427 W/m 9,7 km/h (2 Bft) 97,83 %
27.05.2023 08:52 14,0 C 20,6 C 10,6 C 76 % 1027,6 hPa 0,0 l/m 2 min 0 min 431 W/m 12,9 km/h (3 Bft) 97,87 %
27.05.2023 08:54 14,1 C 21,1 C 10,6 C 76 % 1027,6 hPa 0,0 l/m 2 min 0 min 438 W/m 6,4 km/h (2 Bft) 95,74 %
27.05.2023 08:56 14,2 C 20,6 C 11,1 C 76 % 1027,6 hPa 0,0 l/m 2 min 0 min 443 W/m 6,4 km/h (2 Bft) 95,74 %
27.05.2023 08:58 14,3 C 21,1 C 11,1 C 76 % 1027,6 hPa 0,0 l/m 2 min 0 min 449 W/m 9,7 km/h (2 Bft) 97,87 %
27.05.2023 09:00 14,4 C 21,1 C 11,1 C 76 % 1027,5 hPa 0,0 l/m 2 min 0 min 456 W/m 6,4 km/h (2 Bft) 95,74 %
27.05.2023 09:02 14,6 C 21,1 C 11,1 C 75 % 1027,5 hPa 0,0 l/m 2 min 0 min 461 W/m 9,7 km/h (2 Bft) 97,83 %
27.05.2023 09:04 14,7 C 21,1 C 11,7 C 74 % 1027,5 hPa 0,0 l/m 2 min 0 min 467 W/m 9,7 km/h (2 Bft) 97,87 %
27.05.2023 09:06 14,7 C 21,7 C 12,2 C 74 % 1027,4 hPa 0,0 l/m 2 min 0 min 473 W/m 6,4 km/h (2 Bft) 98,33 %
27.05.2023 09:08 14,8 C 22,2 C 12,2 C 75 % 1027,4 hPa 0,0 l/m 2 min 0 min 479 W/m 9,7 km/h (2 Bft) 97,14 %
27.05.2023 09:10 15,0 C 21,7 C 12,8 C 74 % 1027,4 hPa 0,0 l/m 2 min 0 min 484 W/m 9,7 km/h (2 Bft) 97,87 %
27.05.2023 09:12 15,1 C 22,2 C 12,8 C 73 % 1027,4 hPa 0,0 l/m 2 min 0 min 490 W/m 9,7 km/h (2 Bft) 97,87 %
27.05.2023 09:14 15,2 C 21,7 C 12,8 C 73 % 1027,4 hPa 0,0 l/m 2 min 0 min 495 W/m 9,7 km/h (2 Bft) 97,87 %
27.05.2023 09:16 15,4 C 21,7 C 12,8 C 72 % 1027,4 hPa 0,0 l/m 2 min 0 min 502 W/m 9,7 km/h (2 Bft) 97,83 %
27.05.2023 09:18 15,5 C 21,7 C 12,8 C 71 % 1027,5 hPa 0,0 l/m 2 min 0 min 508 W/m 6,4 km/h (2 Bft) 97,87 %
27.05.2023 09:20 15,6 C 21,7 C 12,8 C 71 % 1027,4 hPa 0,0 l/m 2 min 0 min 512 W/m 6,4 km/h (2 Bft) 97,87 %
27.05.2023 09:22 15,7 C 22,2 C 12,8 C 71 % 1027,4 hPa 0,0 l/m 2 min 0 min 518 W/m 9,7 km/h (2 Bft) 95,74 %
27.05.2023 09:24 15,7 C 22,2 C 12,8 C 71 % 1027,4 hPa 0,0 l/m 2 min 0 min 522 W/m 9,7 km/h (2 Bft) 93,62 %
27.05.2023 09:26 15,8 C 21,1 C 12,8 C 70 % 1027,5 hPa 0,0 l/m 2 min 0 min 529 W/m 12,9 km/h (3 Bft) 98,00 %
27.05.2023 09:28 15,9 C 21,1 C 12,8 C 70 % 1027,4 hPa 0,0 l/m 2 min 0 min 535 W/m 3,2 km/h (1 Bft) 95,65 %
27.05.2023 09:30 16,0 C 21,7 C 13,9 C 71 % 1027,4 hPa 0,0 l/m 2 min 0 min 540 W/m 6,4 km/h (2 Bft) 95,74 %
27.05.2023 09:32 16,1 C 21,7 C 13,3 C 70 % 1027,4 hPa 0,0 l/m 2 min 0 min 543 W/m 6,4 km/h (2 Bft) 97,22 %
27.05.2023 09:34 16,2 C 21,1 C 13,3 C 69 % 1027,4 hPa 0,0 l/m 2 min 0 min 549 W/m 9,7 km/h (2 Bft) 98,18 %
27.05.2023 09:36 16,2 C 21,1 C 13,3 C 69 % 1027,4 hPa 0,0 l/m 2 min 0 min 555 W/m 9,7 km/h (2 Bft) 95,74 %
27.05.2023 09:38 16,2 C 21,1 C 13,3 C 69 % 1027,3 hPa 0,0 l/m 2 min 0 min 559 W/m 9,7 km/h (2 Bft) 97,87 %
27.05.2023 09:40 16,3 C 21,7 C 13,3 C 69 % 1027,3 hPa 0,0 l/m 2 min 0 min 566 W/m 12,9 km/h (3 Bft) 97,87 %
27.05.2023 09:42 16,3 C 21,7 C 13,9 C 69 % 1027,3 hPa 0,0 l/m 2 min 0 min 569 W/m 6,4 km/h (2 Bft) 97,83 %
27.05.2023 09:44 16,3 C 21,7 C 14,4 C 69 % 1027,3 hPa 0,0 l/m 2 min 0 min 576 W/m 9,7 km/h (2 Bft) 97,87 %
27.05.2023 09:46 16,3 C 21,1 C 14,4 C 68 % 1027,3 hPa 0,0 l/m 2 min 0 min 582 W/m 9,7 km/h (2 Bft) 97,87 %
27.05.2023 09:48 16,3 C 21,1 C 14,4 C 68 % 1027,4 hPa 0,0 l/m 2 min 0 min 589 W/m 9,7 km/h (2 Bft) 97,87 %
27.05.2023 09:50 16,3 C 21,1 C 15,0 C 68 % 1027,4 hPa 0,0 l/m 2 min 0 min 594 W/m 9,7 km/h (2 Bft) 97,87 %
27.05.2023 09:52 16,3 C 21,7 C 15,0 C 68 % 1027,4 hPa 0,0 l/m 2 min 0 min 599 W/m 6,4 km/h (2 Bft) 97,87 %
27.05.2023 09:54 16,4 C 21,7 C 15,6 C 68 % 1027,3 hPa 0,0 l/m 2 min 0 min 605 W/m 9,7 km/h (2 Bft) 93,48 %
27.05.2023 09:56 16,4 C 21,7 C 15,0 C 68 % 1027,4 hPa 0,0 l/m 2 min 0 min 611 W/m 9,7 km/h (2 Bft) 95,74 %
27.05.2023 09:58 16,6 C 21,7 C 15,0 C 68 % 1027,3 hPa 0,0 l/m 2 min 0 min 615 W/m 12,9 km/h (3 Bft) 93,62 %
27.05.2023 10:00 16,6 C 20,6 C 15,0 C 67 % 1027,3 hPa 0,0 l/m 2 min 0 min 622 W/m 12,9 km/h (3 Bft) 93,62 %
27.05.2023 10:02 16,6 C 20,6 C 15,6 C 67 % 1027,3 hPa 0,0 l/m 2 min 0 min 628 W/m 6,4 km/h (2 Bft) 93,62 %
27.05.2023 10:04 16,7 C 21,1 C 15,0 C 67 % 1027,3 hPa 0,0 l/m 2 min 0 min 634 W/m 6,4 km/h (2 Bft) 95,74 %
27.05.2023 10:06 16,7 C 21,7 C 15,0 C 68 % 1027,2 hPa 0,0 l/m 2 min 0 min 637 W/m 12,9 km/h (3 Bft) 96,55 %
27.05.2023 10:08 16,8 C 22,2 C 15,0 C 68 % 1027,2 hPa 0,0 l/m 2 min 0 min 642 W/m 6,4 km/h (2 Bft) 91,43 %
27.05.2023 10:10 16,9 C 21,7 C 15,6 C 67 % 1027,2 hPa 0,0 l/m 2 min 0 min 644 W/m 6,4 km/h (2 Bft) 95,74 %
27.05.2023 10:12 16,9 C 21,1 C 15,6 C 67 % 1027,2 hPa 0,0 l/m 2 min 0 min 650 W/m 6,4 km/h (2 Bft) 95,74 %
27.05.2023 10:14 17,1 C 21,1 C 16,7 C 67 % 1027,2 hPa 0,0 l/m 2 min 0 min 654 W/m 6,4 km/h (2 Bft) 93,62 %
27.05.2023 10:16 17,1 C 20,0 C 16,7 C 66 % 1027,2 hPa 0,0 l/m 2 min 0 min 657 W/m 6,4 km/h (2 Bft) 93,62 %
27.05.2023 10:18 17,1 C 20,0 C 16,7 C 66 % 1027,1 hPa 0,0 l/m 2 min 0 min 665 W/m 6,4 km/h (2 Bft) 93,62 %
27.05.2023 10:20 17,0 C 18,9 C 16,7 C 66 % 1027,1 hPa 0,0 l/m 2 min 0 min 671 W/m 9,7 km/h (2 Bft) 91,49 %
27.05.2023 10:22 17,1 C 18,3 C 16,1 C 66 % 1027,0 hPa 0,0 l/m 2 min 0 min 674 W/m 9,7 km/h (2 Bft) 91,49 %
27.05.2023 10:24 17,1 C 18,3 C 15,6 C 66 % 1027,1 hPa 0,0 l/m 2 min 0 min 679 W/m 6,4 km/h (2 Bft) 93,48 %
27.05.2023 10:26 17,1 C 18,3 C 15,6 C 66 % 1027,0 hPa 0,0 l/m 2 min 0 min 685 W/m 9,7 km/h (2 Bft) 91,49 %
27.05.2023 10:28 17,1 C 18,3 C 16,1 C 66 % 1027,0 hPa 0,0 l/m 2 min 0 min 693 W/m 6,4 km/h (2 Bft) 93,62 %
27.05.2023 10:30 17,1 C 18,9 C 16,1 C 67 % 1027,0 hPa 0,0 l/m 2 min 0 min 698 W/m 6,4 km/h (2 Bft) 93,62 %
27.05.2023 10:32 17,1 C 18,9 C 15,0 C 67 % 1027,0 hPa 0,0 l/m 2 min 0 min 700 W/m 9,7 km/h (2 Bft) 93,62 %
27.05.2023 10:34 17,1 C 18,9 C 15,0 C 66 % 1027,0 hPa 0,0 l/m 2 min 0 min 702 W/m 6,4 km/h (2 Bft) 93,62 %
27.05.2023 10:36 17,2 C 18,9 C 15,0 C 66 % 1027,0 hPa 0,0 l/m 2 min 0 min 706 W/m 6,4 km/h (2 Bft) 91,49 %
27.05.2023 10:38 17,2 C 18,3 C 15,0 C 66 % 1027,0 hPa 0,0 l/m 2 min 0 min 708 W/m 6,4 km/h (2 Bft) 95,65 %
27.05.2023 10:40 17,2 C 18,3 C 15,6 C 66 % 1026,9 hPa 0,0 l/m 2 min 0 min 714 W/m 6,4 km/h (2 Bft) 95,74 %
27.05.2023 10:42 17,3 C 18,9 C 16,1 C 67 % 1026,9 hPa 0,0 l/m 2 min 0 min 718 W/m 9,7 km/h (2 Bft) 97,73 %
27.05.2023 10:44 17,4 C 18,9 C 16,7 C 66 % 1026,9 hPa 0,0 l/m 2 min 0 min 719 W/m 9,7 km/h (2 Bft) 97,83 %
27.05.2023 10:46 17,5 C 18,9 C 16,7 C 65 % 1026,9 hPa 0,0 l/m 2 min 0 min 724 W/m 9,7 km/h (2 Bft) 95,74 %
27.05.2023 10:48 17,5 C 19,4 C 15,6 C 65 % 1026,8 hPa 0,0 l/m 2 min 0 min 728 W/m 9,7 km/h (2 Bft) 97,87 %
27.05.2023 10:50 17,6 C 19,4 C 15,6 C 66 % 1026,8 hPa 0,0 l/m 2 min 0 min 732 W/m 6,4 km/h (2 Bft) 95,74 %
27.05.2023 10:52 17,7 C 19,4 C 15,6 C 66 % 1026,8 hPa 0,0 l/m 2 min 0 min 732 W/m 9,7 km/h (2 Bft) 97,87 %
27.05.2023 10:54 17,8 C 20,0 C 15,6 C 66 % 1026,8 hPa 0,0 l/m 2 min 0 min 751 W/m 6,4 km/h (2 Bft) 97,87 %
27.05.2023 10:56 17,9 C 20,6 C 15,6 C 65 % 1026,7 hPa 0,0 l/m 2 min 0 min 741 W/m 12,9 km/h (3 Bft) 95,74 %
27.05.2023 10:58 18,0 C 20,6 C 15,0 C 65 % 1026,7 hPa 0,0 l/m 2 min 0 min 744 W/m 9,7 km/h (2 Bft) 95,65 %
27.05.2023 11:00 18,1 C 21,1 C 14,4 C 64 % 1026,7 hPa 0,0 l/m 2 min 0 min 744 W/m 6,4 km/h (2 Bft) 97,87 %
27.05.2023 11:02 18,1 C 21,1 C 14,4 C 64 % 1026,6 hPa 0,0 l/m 2 min 0 min 747 W/m 6,4 km/h (2 Bft) 97,87 %
27.05.2023 11:04 18,2 C 21,1 C 14,4 C 64 % 1026,5 hPa 0,0 l/m 2 min 0 min 747 W/m 9,7 km/h (2 Bft) 95,83 %
27.05.2023 11:06 18,2 C 21,1 C 14,4 C 64 % 1026,5 hPa 0,0 l/m 2 min 0 min 751 W/m 9,7 km/h (2 Bft) 97,87 %
27.05.2023 11:08 18,2 C 21,7 C 14,4 C 64 % 1026,5 hPa 0,0 l/m 2 min 0 min 758 W/m 9,7 km/h (2 Bft) 97,87 %
27.05.2023 11:10 18,2 C 21,1 C 14,4 C 64 % 1026,5 hPa 0,0 l/m 2 min 0 min 763 W/m 12,9 km/h (3 Bft) 97,87 %
27.05.2023 11:12 18,2 C 21,1 C 14,4 C 64 % 1026,4 hPa 0,0 l/m 2 min 0 min 767 W/m 6,4 km/h (2 Bft) 97,83 %
27.05.2023 11:14 18,3 C 21,7 C 14,4 C 64 % 1026,4 hPa 0,0 l/m 2 min 0 min 768 W/m 6,4 km/h (2 Bft) 91,49 %
27.05.2023 11:16 18,4 C 22,2 C 14,4 C 63 % 1026,5 hPa 0,0 l/m 2 min 0 min 771 W/m 6,4 km/h (2 Bft) 97,87 %
27.05.2023 11:18 18,4 C 22,2 C 14,4 C 63 % 1026,4 hPa 0,0 l/m 2 min 0 min 776 W/m 12,9 km/h (3 Bft) 97,87 %
27.05.2023 11:20 18,6 C 22,2 C 15,0 C 63 % 1026,4 hPa 0,0 l/m 2 min 0 min 783 W/m 9,7 km/h (2 Bft) 97,87 %
27.05.2023 11:22 18,7 C 22,8 C 15,0 C 63 % 1026,4 hPa 0,0 l/m 2 min 0 min 790 W/m 12,9 km/h (3 Bft) 97,87 %
27.05.2023 11:24 18,7 C 22,8 C 15,6 C 62 % 1026,3 hPa 0,0 l/m 2 min 0 min 796 W/m 9,7 km/h (2 Bft) 95,74 %
27.05.2023 11:26 18,8 C 22,8 C 16,1 C 63 % 1026,3 hPa 0,0 l/m 2 min 0 min 797 W/m 6,4 km/h (2 Bft) 97,83 %
27.05.2023 11:28 18,9 C 23,3 C 16,1 C 62 % 1026,3 hPa 0,0 l/m 2 min 0 min 799 W/m 6,4 km/h (2 Bft) 95,74 %
27.05.2023 11:30 18,9 C 23,3 C 16,1 C 62 % 1026,3 hPa 0,0 l/m 2 min 0 min 803 W/m 6,4 km/h (2 Bft) 97,87 %
27.05.2023 11:32 19,1 C 23,3 C 16,7 C 61 % 1026,3 hPa 0,0 l/m 2 min 0 min 813 W/m 12,9 km/h (3 Bft) 95,74 %
27.05.2023 11:34 19,1 C 23,9 C 17,8 C 62 % 1026,2 hPa 0,0 l/m 2 min 0 min 821 W/m 6,4 km/h (2 Bft) 97,87 %
27.05.2023 11:36 19,2 C 24,4 C 17,8 C 61 % 1026,2 hPa 0,0 l/m 2 min 0 min 826 W/m 9,7 km/h (2 Bft) 95,74 %
27.05.2023 11:38 19,3 C 24,4 C 18,3 C 61 % 1026,2 hPa 0,0 l/m 2 min 0 min 827 W/m 9,7 km/h (2 Bft) 97,87 %
27.05.2023 11:40 19,3 C 24,4 C 19,4 C 62 % 1026,1 hPa 0,0 l/m 2 min 0 min 830 W/m 6,4 km/h (2 Bft) 100,00 %
27.05.2023 11:42 19,5 C 25,0 C 19,4 C 61 % 1026,1 hPa 0,0 l/m 2 min 0 min 833 W/m 9,7 km/h (2 Bft) 100,00 %
27.05.2023 11:44 19,6 C 24,4 C 20,0 C 61 % 1026,1 hPa 0,0 l/m 2 min 0 min 835 W/m 6,4 km/h (2 Bft) 100,00 %
27.05.2023 11:46 19,6 C 23,9 C 19,4 C 61 % 1026,1 hPa 0,0 l/m 2 min 0 min 838 W/m 12,9 km/h (3 Bft) 100,00 %
27.05.2023 11:48 19,7 C 24,4 C 19,4 C 60 % 1026,1 hPa 0,0 l/m 2 min 0 min 838 W/m 9,7 km/h (2 Bft) 100,00 %
27.05.2023 11:50 19,7 C 24,4 C 18,3 C 59 % 1026,0 hPa 0,0 l/m 2 min 0 min 848 W/m 9,7 km/h (2 Bft) 100,00 %
27.05.2023 11:52 19,8 C 24,4 C 17,8 C 61 % 1026,0 hPa 0,0 l/m 2 min 0 min 850 W/m 9,7 km/h (2 Bft) 100,00 %
27.05.2023 11:54 19,9 C 25,0 C 17,2 C 61 % 1026,0 hPa 0,0 l/m 2 min 0 min 856 W/m 9,7 km/h (2 Bft) 100,00 %
27.05.2023 11:56 20,0 C 24,4 C 17,2 C 60 % 1026,0 hPa 0,0 l/m 2 min 0 min 857 W/m 16,1 km/h (3 Bft) 100,00 %
27.05.2023 11:58 20,0 C 25,0 C 17,2 C 58 % 1026,0 hPa 0,0 l/m 2 min 0 min 863 W/m 16,1 km/h (3 Bft) 100,00 %
27.05.2023 12:00 20,1 C 25,0 C 17,2 C 59 % 1026,0 hPa 0,0 l/m 2 min 0 min 867 W/m 9,7 km/h (2 Bft) 95,74 %
27.05.2023 12:02 20,2 C 25,6 C 17,2 C 60 % 1026,0 hPa 0,0 l/m 2 min 0 min 869 W/m 9,7 km/h (2 Bft) 97,87 %
27.05.2023 12:04 20,2 C 26,1 C 17,2 C 60 % 1025,9 hPa 0,0 l/m 2 min 0 min 875 W/m 12,9 km/h (3 Bft) 97,92 %
27.05.2023 12:08 20,4 C 25,6 C 17,2 C 57 % 1025,8 hPa 0,0 l/m 4 min 0 min 879 W/m 12,9 km/h (3 Bft) 100,00 %
27.05.2023 12:10 20,4 C 26,1 C 17,2 C 58 % 1025,8 hPa 0,0 l/m 2 min 0 min 884 W/m 12,9 km/h (3 Bft) 97,14 %
27.05.2023 12:12 20,4 C 26,1 C 17,2 C 57 % 1025,8 hPa 0,0 l/m 2 min 0 min 884 W/m 9,7 km/h (2 Bft) 98,08 %
27.05.2023 12:14 20,5 C 26,1 C 17,8 C 56 % 1025,8 hPa 0,0 l/m 2 min 0 min 883 W/m 12,9 km/h (3 Bft) 97,87 %
27.05.2023 12:16 20,6 C 26,1 C 19,4 C 57 % 1025,7 hPa 0,0 l/m 2 min 0 min 889 W/m 6,4 km/h (2 Bft) 95,65 %
27.05.2023 12:18 20,7 C 26,1 C 20,0 C 56 % 1025,7 hPa 0,0 l/m 2 min 0 min 899 W/m 12,9 km/h (3 Bft) 97,87 %
27.05.2023 12:20 20,7 C 26,1 C 21,1 C 56 % 1025,7 hPa 0,0 l/m 2 min 0 min 902 W/m 12,9 km/h (3 Bft) 97,87 %
27.05.2023 12:22 20,7 C 25,6 C 22,2 C 55 % 1025,6 hPa 0,0 l/m 2 min 0 min 896 W/m 16,1 km/h (3 Bft) 97,87 %
27.05.2023 12:24 20,7 C 26,1 C 22,2 C 56 % 1025,7 hPa 0,0 l/m 2 min 0 min 899 W/m 16,1 km/h (3 Bft) 95,74 %
27.05.2023 12:26 20,8 C 25,6 C 22,8 C 56 % 1025,6 hPa 0,0 l/m 2 min 0 min 905 W/m 6,4 km/h (2 Bft) 95,74 %
27.05.2023 12:28 20,8 C 26,1 C 22,8 C 55 % 1025,6 hPa 0,0 l/m 2 min 0 min 906 W/m 12,9 km/h (3 Bft) 95,74 %
27.05.2023 12:30 20,9 C 26,7 C 22,8 C 55 % 1025,7 hPa 0,0 l/m 2 min 0 min 902 W/m 9,7 km/h (2 Bft) 95,74 %
27.05.2023 12:32 20,9 C 26,7 C 23,3 C 54 % 1025,6 hPa 0,0 l/m 2 min 0 min 902 W/m 6,4 km/h (2 Bft) 95,65 %
27.05.2023 12:34 21,0 C 26,7 C 23,9 C 56 % 1025,6 hPa 0,0 l/m 2 min 0 min 904 W/m 9,7 km/h (2 Bft) 95,74 %
27.05.2023 12:36 21,1 C 27,2 C 23,3 C 55 % 1025,7 hPa 0,0 l/m 2 min 0 min 909 W/m 16,1 km/h (3 Bft) 95,74 %
27.05.2023 12:38 21,2 C 27,2 C 23,3 C 53 % 1025,6 hPa 0,0 l/m 2 min 0 min 910 W/m 6,4 km/h (2 Bft) 93,62 %
27.05.2023 12:40 21,3 C 27,2 C 23,3 C 55 % 1025,5 hPa 0,0 l/m 2 min 0 min 913 W/m 12,9 km/h (3 Bft) 95,74 %
27.05.2023 12:42 21,3 C 26,1 C 23,3 C 54 % 1025,5 hPa 0,0 l/m 2 min 0 min 916 W/m 16,1 km/h (3 Bft) 95,74 %
27.05.2023 12:44 21,3 C 26,7 C 22,8 C 55 % 1025,5 hPa 0,0 l/m 2 min 0 min 911 W/m 12,9 km/h (3 Bft) 97,87 %
27.05.2023 12:46 21,3 C 27,2 C 22,8 C 54 % 1025,5 hPa 0,0 l/m 2 min 0 min 914 W/m 9,7 km/h (2 Bft) 97,83 %
27.05.2023 12:48 21,3 C 27,8 C 22,8 C 55 % 1025,4 hPa 0,0 l/m 2 min 0 min 914 W/m 9,7 km/h (2 Bft) 95,74 %
27.05.2023 12:50 21,4 C 27,2 C 23,3 C 54 % 1025,5 hPa 0,0 l/m 2 min 0 min 913 W/m 9,7 km/h (2 Bft) 97,87 %
27.05.2023 12:52 21,4 C 27,8 C 22,8 C 54 % 1025,4 hPa 0,0 l/m 2 min 0 min 916 W/m 16,1 km/h (3 Bft) 97,87 %
27.05.2023 12:54 21,4 C 27,2 C 23,3 C 53 % 1025,4 hPa 0,0 l/m 2 min 0 min 922 W/m 9,7 km/h (2 Bft) 95,74 %
27.05.2023 12:56 21,4 C 27,2 C 22,8 C 53 % 1025,3 hPa 0,0 l/m 2 min 0 min 925 W/m 9,7 km/h (2 Bft) 95,74 %
27.05.2023 12:58 21,4 C 27,8 C 23,3 C 53 % 1025,3 hPa 0,0 l/m 2 min 0 min 929 W/m 9,7 km/h (2 Bft) 97,87 %
27.05.2023 13:00 21,6 C 27,8 C 23,9 C 52 % 1025,2 hPa 0,0 l/m 2 min 0 min 931 W/m 9,7 km/h (2 Bft) 97,83 %
27.05.2023 13:02 21,6 C 27,8 C 24,4 C 52 % 1025,2 hPa 0,0 l/m 2 min 0 min 936 W/m 9,7 km/h (2 Bft) 97,87 %
27.05.2023 13:04 21,7 C 27,8 C 25,0 C 52 % 1025,2 hPa 0,0 l/m 2 min 0 min 934 W/m 9,7 km/h (2 Bft) 97,87 %
27.05.2023 13:06 21,7 C 27,2 C 25,0 C 52 % 1025,1 hPa 0,0 l/m 2 min 0 min 934 W/m 12,9 km/h (3 Bft) 97,87 %
27.05.2023 13:08 21,6 C 26,7 C 25,6 C 52 % 1025,1 hPa 0,0 l/m 2 min 0 min 932 W/m 12,9 km/h (3 Bft) 97,87 %
27.05.2023 13:10 21,5 C 26,1 C 25,6 C 52 % 1025,1 hPa 0,0 l/m 2 min 0 min 929 W/m 12,9 km/h (3 Bft) 100,00 %
27.05.2023 13:12 21,5 C 27,2 C 25,6 C 53 % 1025,1 hPa 0,0 l/m 2 min 0 min 932 W/m 12,9 km/h (3 Bft) 100,00 %
27.05.2023 13:14 21,5 C 27,2 C 25,0 C 53 % 1025,1 hPa 0,0 l/m 2 min 0 min 938 W/m 12,9 km/h (3 Bft) 100,00 %
27.05.2023 13:16 21,5 C 27,2 C 25,0 C 52 % 1025,0 hPa 0,0 l/m 2 min 0 min 933 W/m 12,9 km/h (3 Bft) 100,00 %
27.05.2023 13:18 21,6 C 27,2 C 24,4 C 53 % 1025,0 hPa 0,0 l/m 2 min 0 min 938 W/m 12,9 km/h (3 Bft) 100,00 %
27.05.2023 13:20 21,7 C 28,3 C 24,4 C 53 % 1025,0 hPa 0,0 l/m 2 min 0 min 938 W/m 9,7 km/h (2 Bft) 100,00 %
27.05.2023 13:22 21,9 C 28,9 C 24,4 C 52 % 1024,9 hPa 0,0 l/m 2 min 0 min 934 W/m 9,7 km/h (2 Bft) 100,00 %
27.05.2023 13:24 21,9 C 28,9 C 25,0 C 51 % 1024,9 hPa 0,0 l/m 2 min 0 min 936 W/m 6,4 km/h (2 Bft) 100,00 %
27.05.2023 13:26 22,1 C 28,9 C 25,0 C 52 % 1024,9 hPa 0,0 l/m 2 min 0 min 936 W/m 6,4 km/h (2 Bft) 100,00 %
27.05.2023 13:28 22,2 C 28,9 C 24,4 C 53 % 1024,9 hPa 0,0 l/m 2 min 0 min 938 W/m 22,5 km/h (4 Bft) 100,00 %
27.05.2023 13:30 22,2 C 28,9 C 24,4 C 52 % 1024,9 hPa 0,0 l/m 2 min 0 min 937 W/m 12,9 km/h (3 Bft) 100,00 %
27.05.2023 13:32 22,3 C 28,9 C 24,4 C 51 % 1024,9 hPa 0,0 l/m 2 min 0 min 937 W/m 9,7 km/h (2 Bft) 100,00 %
27.05.2023 13:34 22,2 C 28,9 C 24,4 C 51 % 1024,8 hPa 0,0 l/m 2 min 0 min 934 W/m 12,9 km/h (3 Bft) 100,00 %
27.05.2023 13:36 22,2 C 28,9 C 24,4 C 51 % 1024,8 hPa 0,0 l/m 2 min 0 min 934 W/m 16,1 km/h (3 Bft) 97,87 %
27.05.2023 13:38 22,3 C 28,3 C 24,4 C 50 % 1024,8 hPa 0,0 l/m 2 min 0 min 939 W/m 9,7 km/h (2 Bft) 100,00 %
27.05.2023 13:40 22,3 C 28,3 C 25,6 C 51 % 1024,7 hPa 0,0 l/m 2 min 0 min 942 W/m 19,3 km/h (3 Bft) 100,00 %
27.05.2023 13:42 22,3 C 27,8 C 25,6 C 50 % 1024,7 hPa 0,0 l/m 2 min 0 min 941 W/m 12,9 km/h (3 Bft) 97,87 %
27.05.2023 13:44 22,3 C 28,9 C 25,6 C 52 % 1024,6 hPa 0,0 l/m 2 min 0 min 940 W/m 12,9 km/h (3 Bft) 100,00 %
27.05.2023 13:46 22,6 C 30,0 C 24,4 C 51 % 1024,6 hPa 0,0 l/m 2 min 0 min 940 W/m 9,7 km/h (2 Bft) 100,00 %
27.05.2023 13:48 22,7 C 30,6 C 23,3 C 52 % 1024,6 hPa 0,0 l/m 2 min 0 min 937 W/m 12,9 km/h (3 Bft) 100,00 %
27.05.2023 13:50 22,7 C 30,6 C 22,2 C 52 % 1024,6 hPa 0,0 l/m 2 min 0 min 937 W/m 9,7 km/h (2 Bft) 100,00 %
27.05.2023 13:52 22,8 C 30,6 C 21,7 C 51 % 1024,6 hPa 0,0 l/m 2 min 0 min 943 W/m 12,9 km/h (3 Bft) 100,00 %
27.05.2023 13:54 22,9 C 31,1 C 21,1 C 50 % 1024,5 hPa 0,0 l/m 2 min 0 min 936 W/m 9,7 km/h (2 Bft) 97,96 %
27.05.2023 13:56 23,0 C 31,1 C 20,6 C 50 % 1024,5 hPa 0,0 l/m 2 min 0 min 934 W/m 12,9 km/h (3 Bft) 100,00 %
27.05.2023 13:58 23,1 C 30,6 C 20,0 C 50 % 1024,4 hPa 0,0 l/m 2 min 0 min 935 W/m 12,9 km/h (3 Bft) 100,00 %
27.05.2023 14:00 23,1 C 31,1 C 20,0 C 51 % 1024,4 hPa 0,0 l/m 2 min 0 min 935 W/m 9,7 km/h (2 Bft) 100,00 %
27.05.2023 14:02 23,2 C 31,7 C 19,4 C 50 % 1024,4 hPa 0,0 l/m 2 min 0 min 930 W/m 12,9 km/h (3 Bft) 100,00 %
27.05.2023 14:04 23,3 C 32,2 C 18,9 C 50 % 1024,3 hPa 0,0 l/m 2 min 0 min 930 W/m 9,7 km/h (2 Bft) 97,87 %
27.05.2023 14:06 23,4 C 31,7 C 19,4 C 49 % 1024,2 hPa 0,0 l/m 2 min 0 min 928 W/m 9,7 km/h (2 Bft) 100,00 %
27.05.2023 14:08 23,5 C 31,1 C 19,4 C 48 % 1024,3 hPa 0,0 l/m 2 min 0 min 925 W/m 16,1 km/h (3 Bft) 100,00 %
27.05.2023 14:10 23,5 C 30,6 C 18,9 C 48 % 1024,3 hPa 0,0 l/m 2 min 0 min 923 W/m 16,1 km/h (3 Bft) 100,00 %
27.05.2023 14:12 23,5 C 31,1 C 18,9 C 48 % 1024,2 hPa 0,0 l/m 2 min 0 min 922 W/m 12,9 km/h (3 Bft) 95,74 %
27.05.2023 14:14 23,6 C 31,1 C 18,9 C 49 % 1024,2 hPa 0,0 l/m 2 min 0 min 917 W/m 12,9 km/h (3 Bft) 95,74 %
27.05.2023 14:16 23,6 C 31,1 C 18,9 C 48 % 1024,2 hPa 0,0 l/m 2 min 0 min 918 W/m 12,9 km/h (3 Bft) 95,74 %
27.05.2023 14:18 23,6 C 31,7 C 18,9 C 49 % 1024,1 hPa 0,0 l/m 2 min 0 min 917 W/m 9,7 km/h (2 Bft) 97,87 %
27.05.2023 14:20 23,7 C 31,7 C 18,9 C 49 % 1024,1 hPa 0,0 l/m 2 min 0 min 917 W/m 9,7 km/h (2 Bft) 97,83 %
27.05.2023 14:22 23,7 C 31,1 C 18,9 C 48 % 1024,0 hPa 0,0 l/m 2 min 0 min 915 W/m 19,3 km/h (3 Bft) 97,87 %
27.05.2023 14:24 23,8 C 30,6 C 18,3 C 46 % 1024,0 hPa 0,0 l/m 2 min 0 min 914 W/m 12,9 km/h (3 Bft) 93,62 %
27.05.2023 14:26 23,9 C 31,1 C 18,9 C 47 % 1024,0 hPa 0,0 l/m 2 min 0 min 914 W/m 6,4 km/h (2 Bft) 97,87 %
27.05.2023 14:28 24,1 C 31,7 C 18,9 C 48 % 1023,9 hPa 0,0 l/m 2 min 0 min 912 W/m 12,9 km/h (3 Bft) 95,74 %
27.05.2023 14:30 24,1 C 31,1 C 18,9 C 46 % 1023,9 hPa 0,0 l/m 2 min 0 min 913 W/m 12,9 km/h (3 Bft) 95,74 %
27.05.2023 14:32 24,2 C 31,1 C 18,9 C 46 % 1023,8 hPa 0,0 l/m 2 min 0 min 910 W/m 9,7 km/h (2 Bft) 95,74 %
27.05.2023 14:34 24,2 C 31,1 C 18,9 C 46 % 1023,9 hPa 0,0 l/m 2 min 0 min 910 W/m 12,9 km/h (3 Bft) 89,13 %
27.05.2023 14:36 24,3 C 31,7 C 18,9 C 47 % 1023,8 hPa 0,0 l/m 2 min 0 min 909 W/m 16,1 km/h (3 Bft) 95,74 %
27.05.2023 14:38 24,3 C 31,1 C 18,9 C 46 % 1023,8 hPa 0,0 l/m 2 min 0 min 908 W/m 12,9 km/h (3 Bft) 95,74 %
27.05.2023 14:40 24,3 C 30,6 C 18,9 C 46 % 1023,8 hPa 0,0 l/m 2 min 0 min 902 W/m 12,9 km/h (3 Bft) 91,49 %
27.05.2023 14:42 24,3 C 31,1 C 18,9 C 46 % 1023,8 hPa 0,0 l/m 2 min 0 min 899 W/m 9,7 km/h (2 Bft) 93,62 %
27.05.2023 14:44 24,4 C 31,7 C 18,9 C 47 % 1023,8 hPa 0,0 l/m 2 min 0 min 899 W/m 9,7 km/h (2 Bft) 95,74 %
27.05.2023 14:46 24,4 C 31,7 C 18,9 C 44 % 1023,7 hPa 0,0 l/m 2 min 0 min 899 W/m 6,4 km/h (2 Bft) 93,62 %
27.05.2023 14:48 24,5 C 31,7 C 18,9 C 46 % 1023,7 hPa 0,0 l/m 2 min 0 min 897 W/m 9,7 km/h (2 Bft) 95,74 %
27.05.2023 14:50 24,6 C 32,2 C 18,9 C 47 % 1023,7 hPa 0,0 l/m 2 min 0 min 897 W/m 16,1 km/h (3 Bft) 93,48 %
27.05.2023 14:52 24,6 C 31,7 C 18,9 C 45 % 1023,7 hPa 0,0 l/m 2 min 0 min 897 W/m 9,7 km/h (2 Bft) 95,74 %
27.05.2023 14:54 24,6 C 31,7 C 18,9 C 45 % 1023,7 hPa 0,0 l/m 2 min 0 min 893 W/m 9,7 km/h (2 Bft) 93,62 %
27.05.2023 14:56 24,6 C 31,7 C 19,4 C 45 % 1023,6 hPa 0,0 l/m 2 min 0 min 892 W/m 12,9 km/h (3 Bft) 95,74 %
27.05.2023 14:58 24,6 C 31,7 C 18,9 C 46 % 1023,7 hPa 0,0 l/m 2 min 0 min 885 W/m 12,9 km/h (3 Bft) 94,29 %
27.05.2023 15:00 24,7 C 32,2 C 19,4 C 45 % 1023,7 hPa 0,0 l/m 2 min 0 min 883 W/m 9,7 km/h (2 Bft) 91,67 %
27.05.2023 15:02 24,8 C 32,2 C 19,4 C 45 % 1023,6 hPa 0,0 l/m 2 min 0 min 883 W/m 9,7 km/h (2 Bft) 93,62 %
27.05.2023 15:04 24,9 C 32,2 C 19,4 C 45 % 1023,6 hPa 0,0 l/m 2 min 0 min 883 W/m 9,7 km/h (2 Bft) 93,48 %
27.05.2023 15:06 24,9 C 32,8 C 19,4 C 45 % 1023,6 hPa 0,0 l/m 2 min 0 min 882 W/m 9,7 km/h (2 Bft) 96,61 %
27.05.2023 15:08 24,9 C 32,2 C 19,4 C 44 % 1023,5 hPa 0,0 l/m 2 min 0 min 874 W/m 6,4 km/h (2 Bft) 94,29 %
27.05.2023 15:10 24,9 C 31,1 C 18,9 C 44 % 1023,5 hPa 0,0 l/m 2 min 0 min 882 W/m 16,1 km/h (3 Bft) 93,62 %
27.05.2023 15:12 24,9 C 31,7 C 19,4 C 44 % 1023,4 hPa 0,0 l/m 2 min 0 min 867 W/m 6,4 km/h (2 Bft) 95,74 %
27.05.2023 15:14 24,9 C 31,1 C 19,4 C 45 % 1023,4 hPa 0,0 l/m 2 min 0 min 861 W/m 9,7 km/h (2 Bft) 95,74 %
27.05.2023 15:16 24,9 C 30,6 C 19,4 C 44 % 1023,4 hPa 0,0 l/m 2 min 0 min 859 W/m 6,4 km/h (2 Bft) 89,36 %
27.05.2023 15:18 24,9 C 30,0 C 18,9 C 45 % 1023,4 hPa 0,0 l/m 2 min 0 min 860 W/m 16,1 km/h (3 Bft) 91,49 %
27.05.2023 15:20 24,8 C 30,0 C 18,9 C 45 % 1023,4 hPa 0,0 l/m 2 min 0 min 860 W/m 12,9 km/h (3 Bft) 95,65 %
27.05.2023 15:22 24,6 C 30,6 C 18,9 C 44 % 1023,4 hPa 0,0 l/m 2 min 0 min 856 W/m 9,7 km/h (2 Bft) 93,62 %
27.05.2023 15:24 24,6 C 31,1 C 19,4 C 45 % 1023,4 hPa 0,0 l/m 2 min 0 min 853 W/m 9,7 km/h (2 Bft) 95,74 %
27.05.2023 15:26 24,6 C 31,1 C 19,4 C 46 % 1023,3 hPa 0,0 l/m 2 min 0 min 849 W/m 9,7 km/h (2 Bft) 95,74 %
27.05.2023 15:28 24,7 C 30,6 C 20,0 C 46 % 1023,3 hPa 0,0 l/m 2 min 0 min 847 W/m 12,9 km/h (3 Bft) 93,62 %
27.05.2023 15:30 24,7 C 30,6 C 19,4 C 44 % 1023,3 hPa 0,0 l/m 2 min 0 min 845 W/m 9,7 km/h (2 Bft) 97,87 %
27.05.2023 15:32 24,8 C 31,1 C 19,4 C 45 % 1023,2 hPa 0,0 l/m 2 min 0 min 841 W/m 6,4 km/h (2 Bft) 97,83 %
27.05.2023 15:34 24,8 C 31,1 C 19,4 C 44 % 1023,2 hPa 0,0 l/m 2 min 0 min 842 W/m 9,7 km/h (2 Bft) 97,87 %
27.05.2023 15:36 24,9 C 30,0 C 19,4 C 44 % 1023,2 hPa 0,0 l/m 2 min 0 min 840 W/m 19,3 km/h (3 Bft) 100,00 %
27.05.2023 15:38 24,9 C 30,0 C 19,4 C 44 % 1023,2 hPa 0,0 l/m 2 min 0 min 838 W/m 9,7 km/h (2 Bft) 97,87 %
27.05.2023 15:40 24,9 C 30,0 C 19,4 C 45 % 1023,2 hPa 0,0 l/m 2 min 0 min 837 W/m 16,1 km/h (3 Bft) 100,00 %
27.05.2023 15:42 24,8 C 30,0 C 19,4 C 46 % 1023,2 hPa 0,0 l/m 2 min 0 min 834 W/m 16,1 km/h (3 Bft) 100,00 %
27.05.2023 15:44 24,8 C 30,0 C 20,0 C 45 % 1023,1 hPa 0,0 l/m 2 min 0 min 827 W/m 9,7 km/h (2 Bft) 100,00 %
27.05.2023 15:46 24,9 C 30,0 C 19,4 C 44 % 1023,1 hPa 0,0 l/m 2 min 0 min 823 W/m 9,7 km/h (2 Bft) 97,83 %
27.05.2023 15:48 24,9 C 30,0 C 19,4 C 44 % 1023,1 hPa 0,0 l/m 2 min 0 min 821 W/m 16,1 km/h (3 Bft) 100,00 %
27.05.2023 15:50 24,8 C 30,0 C 19,4 C 44 % 1023,0 hPa 0,0 l/m 2 min 0 min 814 W/m 16,1 km/h (3 Bft) 100,00 %
27.05.2023 15:52 24,7 C 28,9 C 18,9 C 43 % 1023,0 hPa 0,0 l/m 2 min 0 min 812 W/m 12,9 km/h (3 Bft) 100,00 %
27.05.2023 15:54 24,6 C 28,9 C 18,9 C 44 % 1022,9 hPa 0,0 l/m 2 min 0 min 809 W/m 6,4 km/h (2 Bft) 100,00 %
27.05.2023 15:56 24,6 C 28,9 C 18,9 C 44 % 1022,9 hPa 0,0 l/m 2 min 0 min 804 W/m 9,7 km/h (2 Bft) 100,00 %
27.05.2023 15:58 24,6 C 30,0 C 18,9 C 44 % 1022,9 hPa 0,0 l/m 2 min 0 min 801 W/m 9,7 km/h (2 Bft) 100,00 %
27.05.2023 16:00 24,6 C 29,4 C 18,9 C 45 % 1022,9 hPa 0,0 l/m 2 min 0 min 798 W/m 9,7 km/h (2 Bft) 100,00 %
27.05.2023 16:02 24,7 C 30,0 C 19,4 C 46 % 1022,9 hPa 0,0 l/m 2 min 0 min 793 W/m 9,7 km/h (2 Bft) 95,74 %
27.05.2023 16:04 24,7 C 30,0 C 19,4 C 45 % 1022,9 hPa 0,0 l/m 2 min 0 min 790 W/m 9,7 km/h (2 Bft) 100,00 %
27.05.2023 16:06 24,8 C 30,6 C 19,4 C 46 % 1022,8 hPa 0,0 l/m 2 min 0 min 788 W/m 6,4 km/h (2 Bft) 95,74 %
27.05.2023 16:08 24,8 C 30,0 C 19,4 C 45 % 1022,8 hPa 0,0 l/m 2 min 0 min 783 W/m 6,4 km/h (2 Bft) 100,00 %
27.05.2023 16:10 24,9 C 30,6 C 19,4 C 45 % 1022,7 hPa 0,0 l/m 2 min 0 min 779 W/m 9,7 km/h (2 Bft) 100,00 %
27.05.2023 16:12 24,9 C 29,4 C 19,4 C 44 % 1022,7 hPa 0,0 l/m 2 min 0 min 773 W/m 6,4 km/h (2 Bft) 97,87 %
27.05.2023 16:14 24,8 C 29,4 C 19,4 C 44 % 1022,7 hPa 0,0 l/m 2 min 0 min 767 W/m 12,9 km/h (3 Bft) 97,83 %
27.05.2023 16:16 24,8 C 29,4 C 19,4 C 44 % 1022,7 hPa 0,0 l/m 2 min 0 min 766 W/m 9,7 km/h (2 Bft) 97,87 %
27.05.2023 16:18 24,8 C 29,4 C 19,4 C 44 % 1022,7 hPa 0,0 l/m 2 min 0 min 760 W/m 12,9 km/h (3 Bft) 97,87 %
27.05.2023 16:20 24,8 C 29,4 C 19,4 C 44 % 1022,6 hPa 0,0 l/m 2 min 0 min 759 W/m 9,7 km/h (2 Bft) 97,87 %
27.05.2023 16:22 24,9 C 30,0 C 20,0 C 44 % 1022,6 hPa 0,0 l/m 2 min 0 min 754 W/m 6,4 km/h (2 Bft) 97,87 %
27.05.2023 16:24 24,9 C 30,6 C 20,0 C 45 % 1022,6 hPa 0,0 l/m 2 min 0 min 750 W/m 9,7 km/h (2 Bft) 97,87 %
27.05.2023 16:26 25,0 C 30,6 C 20,0 C 45 % 1022,5 hPa 0,0 l/m 2 min 0 min 746 W/m 16,1 km/h (3 Bft) 97,83 %
27.05.2023 16:28 25,1 C 30,6 C 20,0 C 46 % 1022,5 hPa 0,0 l/m 2 min 0 min 742 W/m 6,4 km/h (2 Bft) 95,74 %
27.05.2023 16:30 25,2 C 30,6 C 20,6 C 45 % 1022,5 hPa 0,0 l/m 2 min 0 min 736 W/m 16,1 km/h (3 Bft) 97,87 %
27.05.2023 16:32 25,1 C 29,4 C 20,0 C 44 % 1022,4 hPa 0,0 l/m 2 min 0 min 734 W/m 16,1 km/h (3 Bft) 93,62 %
27.05.2023 16:34 25,1 C 29,4 C 20,0 C 45 % 1022,5 hPa 0,0 l/m 2 min 0 min 727 W/m 9,7 km/h (2 Bft) 97,87 %
27.05.2023 16:36 25,1 C 29,4 C 20,0 C 45 % 1022,4 hPa 0,0 l/m 2 min 0 min 724 W/m 12,9 km/h (3 Bft) 93,62 %
27.05.2023 16:38 24,9 C 29,4 C 20,0 C 44 % 1022,4 hPa 0,0 l/m 2 min 0 min 720 W/m 9,7 km/h (2 Bft) 97,87 %
27.05.2023 16:40 24,9 C 30,0 C 20,0 C 45 % 1022,4 hPa 0,0 l/m 2 min 0 min 715 W/m 9,7 km/h (2 Bft) 97,87 %
27.05.2023 16:42 24,9 C 29,4 C 20,0 C 45 % 1022,3 hPa 0,0 l/m 2 min 0 min 710 W/m 12,9 km/h (3 Bft) 97,83 %
27.05.2023 16:44 24,9 C 30,6 C 20,6 C 47 % 1022,3 hPa 0,0 l/m 2 min 0 min 706 W/m 9,7 km/h (2 Bft) 100,00 %
27.05.2023 16:46 25,0 C 30,6 C 20,6 C 46 % 1022,4 hPa 0,0 l/m 2 min 0 min 701 W/m 9,7 km/h (2 Bft) 100,00 %
27.05.2023 16:48 25,1 C 30,0 C 20,6 C 46 % 1022,3 hPa 0,0 l/m 2 min 0 min 693 W/m 9,7 km/h (2 Bft) 100,00 %
27.05.2023 16:50 25,1 C 30,0 C 20,0 C 46 % 1022,3 hPa 0,0 l/m 2 min 0 min 687 W/m 9,7 km/h (2 Bft) 100,00 %
27.05.2023 16:52 25,1 C 30,6 C 20,0 C 45 % 1022,2 hPa 0,0 l/m 2 min 0 min 685 W/m 9,7 km/h (2 Bft) 97,87 %
27.05.2023 16:54 25,1 C 30,0 C 20,6 C 46 % 1022,2 hPa 0,0 l/m 2 min 0 min 678 W/m 12,9 km/h (3 Bft) 100,00 %
27.05.2023 16:56 25,1 C 30,0 C 20,6 C 45 % 1022,2 hPa 0,0 l/m 2 min 0 min 676 W/m 12,9 km/h (3 Bft) 100,00 %
27.05.2023 16:58 25,2 C 30,0 C 20,6 C 46 % 1022,2 hPa 0,0 l/m 2 min 0 min 669 W/m 16,1 km/h (3 Bft) 100,00 %
27.05.2023 17:00 25,2 C 30,6 C 20,6 C 47 % 1022,3 hPa 0,0 l/m 2 min 0 min 664 W/m 9,7 km/h (2 Bft) 97,87 %
27.05.2023 17:02 25,2 C 31,1 C 21,1 C 46 % 1022,3 hPa 0,0 l/m 2 min 0 min 660 W/m 6,4 km/h (2 Bft) 100,00 %
27.05.2023 17:04 25,2 C 30,6 C 20,6 C 46 % 1022,2 hPa 0,0 l/m 2 min 0 min 654 W/m 12,9 km/h (3 Bft) 100,00 %
27.05.2023 17:06 25,2 C 30,0 C 20,6 C 45 % 1022,2 hPa 0,0 l/m 2 min 0 min 647 W/m 9,7 km/h (2 Bft) 98,28 %
27.05.2023 17:08 25,2 C 30,0 C 20,6 C 45 % 1022,2 hPa 0,0 l/m 2 min 0 min 641 W/m 12,9 km/h (3 Bft) 100,00 %
27.05.2023 17:10 25,2 C 29,4 C 20,6 C 46 % 1022,2 hPa 0,0 l/m 2 min 0 min 631 W/m 9,7 km/h (2 Bft) 100,00 %
27.05.2023 17:12 25,3 C 30,0 C 20,6 C 45 % 1022,1 hPa 0,0 l/m 2 min 0 min 626 W/m 12,9 km/h (3 Bft) 97,87 %
27.05.2023 17:14 25,3 C 30,0 C 20,6 C 45 % 1022,2 hPa 0,0 l/m 2 min 0 min 621 W/m 12,9 km/h (3 Bft) 100,00 %
27.05.2023 17:16 25,2 C 29,4 C 20,6 C 45 % 1022,1 hPa 0,0 l/m 2 min 0 min 615 W/m 6,4 km/h (2 Bft) 100,00 %
27.05.2023 17:18 25,2 C 29,4 C 20,6 C 45 % 1022,1 hPa 0,0 l/m 2 min 0 min 609 W/m 12,9 km/h (3 Bft) 100,00 %
27.05.2023 17:20 25,2 C 29,4 C 21,1 C 46 % 1022,1 hPa 0,0 l/m 2 min 0 min 606 W/m 12,9 km/h (3 Bft) 100,00 %
27.05.2023 17:22 25,2 C 30,6 C 21,1 C 45 % 1022,1 hPa 0,0 l/m 2 min 0 min 601 W/m 9,7 km/h (2 Bft) 97,83 %
27.05.2023 17:24 25,3 C 30,6 C 21,1 C 46 % 1022,1 hPa 0,0 l/m 2 min 0 min 597 W/m 6,4 km/h (2 Bft) 97,87 %
27.05.2023 17:26 25,4 C 30,6 C 21,7 C 46 % 1022,1 hPa 0,0 l/m 2 min 0 min 591 W/m 12,9 km/h (3 Bft) 97,87 %
27.05.2023 17:28 25,5 C 30,6 C 21,7 C 46 % 1022,1 hPa 0,0 l/m 2 min 0 min 586 W/m 6,4 km/h (2 Bft) 95,74 %
27.05.2023 17:30 25,6 C 29,4 C 20,6 C 45 % 1022,1 hPa 0,0 l/m 2 min 0 min 581 W/m 12,9 km/h (3 Bft) 91,49 %
27.05.2023 17:32 25,5 C 30,0 C 21,1 C 46 % 1022,0 hPa 0,0 l/m 2 min 0 min 575 W/m 9,7 km/h (2 Bft) 97,87 %
27.05.2023 17:34 25,4 C 29,4 C 20,6 C 44 % 1022,0 hPa 0,0 l/m 2 min 0 min 568 W/m 16,1 km/h (3 Bft) 95,74 %
27.05.2023 17:36 25,3 C 28,9 C 20,6 C 45 % 1022,0 hPa 0,0 l/m 2 min 0 min 559 W/m 12,9 km/h (3 Bft) 97,83 %
27.05.2023 17:38 25,2 C 28,9 C 20,6 C 46 % 1022,0 hPa 0,0 l/m 2 min 0 min 555 W/m 9,7 km/h (2 Bft) 95,74 %
27.05.2023 17:40 25,2 C 29,4 C 21,1 C 47 % 1021,9 hPa 0,0 l/m 2 min 0 min 554 W/m 16,1 km/h (3 Bft) 97,87 %
27.05.2023 17:42 25,2 C 29,4 C 21,1 C 46 % 1021,9 hPa 0,0 l/m 2 min 0 min 553 W/m 9,7 km/h (2 Bft) 95,74 %
27.05.2023 17:44 25,2 C 30,0 C 21,7 C 46 % 1021,9 hPa 0,0 l/m 2 min 0 min 543 W/m 12,9 km/h (3 Bft) 95,74 %
27.05.2023 17:46 25,2 C 29,4 C 21,1 C 45 % 1021,9 hPa 0,0 l/m 2 min 0 min 533 W/m 12,9 km/h (3 Bft) 95,74 %
27.05.2023 17:48 25,1 C 30,0 C 21,1 C 46 % 1021,8 hPa 0,0 l/m 2 min 0 min 529 W/m 6,4 km/h (2 Bft) 95,74 %
27.05.2023 17:50 25,2 C 30,6 C 21,7 C 46 % 1021,9 hPa 0,0 l/m 2 min 0 min 525 W/m 12,9 km/h (3 Bft) 95,65 %
27.05.2023 17:52 25,2 C 29,4 C 21,1 C 45 % 1021,8 hPa 0,0 l/m 2 min 0 min 521 W/m 12,9 km/h (3 Bft) 93,62 %
27.05.2023 17:54 25,2 C 30,0 C 21,7 C 46 % 1021,8 hPa 0,0 l/m 2 min 0 min 517 W/m 6,4 km/h (2 Bft) 95,74 %
27.05.2023 17:56 25,2 C 30,0 C 21,1 C 46 % 1021,8 hPa 0,0 l/m 2 min 0 min 513 W/m 16,1 km/h (3 Bft) 95,74 %
27.05.2023 17:58 25,2 C 30,0 C 21,1 C 47 % 1021,8 hPa 0,0 l/m 2 min 0 min 508 W/m 9,7 km/h (2 Bft) 95,74 %
27.05.2023 18:00 25,2 C 30,6 C 21,1 C 46 % 1021,8 hPa 0,0 l/m 2 min 0 min 505 W/m 12,9 km/h (3 Bft) 93,62 %
27.05.2023 18:02 25,2 C 30,6 C 21,1 C 47 % 1021,7 hPa 0,0 l/m 2 min 0 min 495 W/m 12,9 km/h (3 Bft) 95,74 %
27.05.2023 18:04 25,2 C 30,6 C 21,1 C 46 % 1021,8 hPa 0,0 l/m 2 min 0 min 488 W/m 9,7 km/h (2 Bft) 95,65 %
27.05.2023 18:08 25,0 C 29,4 C 20,6 C 46 % 1021,7 hPa 0,0 l/m 4 min 0 min 479 W/m 16,1 km/h (3 Bft) 93,88 %
27.05.2023 18:10 24,9 C 29,4 C 21,1 C 47 % 1021,7 hPa 0,0 l/m 2 min 0 min 470 W/m 6,4 km/h (2 Bft) 95,74 %
27.05.2023 18:12 25,0 C 29,4 C 21,1 C 47 % 1021,7 hPa 0,0 l/m 2 min 0 min 464 W/m 12,9 km/h (3 Bft) 95,74 %
27.05.2023 18:14 25,0 C 30,0 C 21,1 C 47 % 1021,7 hPa 0,0 l/m 2 min 0 min 459 W/m 12,9 km/h (3 Bft) 95,74 %
27.05.2023 18:16 25,1 C 30,0 C 21,1 C 47 % 1021,7 hPa 0,0 l/m 2 min 0 min 451 W/m 9,7 km/h (2 Bft) 95,65 %
27.05.2023 18:18 25,2 C 30,6 C 21,1 C 46 % 1021,7 hPa 0,0 l/m 2 min 0 min 449 W/m 9,7 km/h (2 Bft) 93,62 %
27.05.2023 18:20 25,2 C 29,4 C 21,1 C 46 % 1021,6 hPa 0,0 l/m 2 min 0 min 440 W/m 9,7 km/h (2 Bft) 95,74 %
27.05.2023 18:22 25,2 C 29,4 C 21,1 C 46 % 1021,6 hPa 0,0 l/m 2 min 0 min 431 W/m 16,1 km/h (3 Bft) 93,62 %
27.05.2023 18:24 25,2 C 30,0 C 21,1 C 46 % 1021,6 hPa 0,0 l/m 2 min 0 min 425 W/m 12,9 km/h (3 Bft) 95,74 %
27.05.2023 18:26 25,2 C 30,0 C 21,1 C 46 % 1021,6 hPa 0,0 l/m 2 min 0 min 421 W/m 6,4 km/h (2 Bft) 93,62 %
27.05.2023 18:28 25,2 C 30,6 C 21,1 C 47 % 1021,6 hPa 0,0 l/m 2 min 0 min 417 W/m 9,7 km/h (2 Bft) 95,74 %
27.05.2023 18:30 25,2 C 30,6 C 21,1 C 48 % 1021,6 hPa 0,0 l/m 2 min 0 min 411 W/m 12,9 km/h (3 Bft) 95,65 %
27.05.2023 18:32 25,2 C 30,6 C 21,7 C 48 % 1021,5 hPa 0,0 l/m 2 min 0 min 405 W/m 12,9 km/h (3 Bft) 93,62 %
27.05.2023 18:34 25,1 C 30,6 C 21,1 C 47 % 1021,5 hPa 0,0 l/m 2 min 0 min 398 W/m 9,7 km/h (2 Bft) 95,74 %
27.05.2023 18:36 25,1 C 30,6 C 21,1 C 48 % 1021,6 hPa 0,0 l/m 2 min 0 min 390 W/m 9,7 km/h (2 Bft) 95,74 %
27.05.2023 18:38 25,1 C 30,0 C 21,1 C 47 % 1021,5 hPa 0,0 l/m 2 min 0 min 384 W/m 6,4 km/h (2 Bft) 95,74 %
27.05.2023 18:40 24,9 C 29,4 C 21,1 C 47 % 1021,5 hPa 0,0 l/m 2 min 0 min 378 W/m 12,9 km/h (3 Bft) 95,74 %
27.05.2023 18:42 24,8 C 29,4 C 21,1 C 48 % 1021,5 hPa 0,0 l/m 2 min 0 min 371 W/m 6,4 km/h (2 Bft) 100,00 %
27.05.2023 18:44 24,8 C 30,0 C 21,1 C 48 % 1021,4 hPa 0,0 l/m 2 min 0 min 366 W/m 12,9 km/h (3 Bft) 97,87 %
27.05.2023 18:46 24,7 C 30,0 C 21,1 C 48 % 1021,4 hPa 0,0 l/m 2 min 0 min 359 W/m 6,4 km/h (2 Bft) 100,00 %
27.05.2023 18:48 24,7 C 30,0 C 21,1 C 48 % 1021,4 hPa 0,0 l/m 2 min 0 min 355 W/m 6,4 km/h (2 Bft) 100,00 %
27.05.2023 18:50 24,7 C 30,0 C 21,1 C 48 % 1021,4 hPa 0,0 l/m 2 min 0 min 349 W/m 9,7 km/h (2 Bft) 100,00 %
27.05.2023 18:52 24,7 C 29,4 C 20,6 C 47 % 1021,4 hPa 0,0 l/m 2 min 0 min 342 W/m 6,4 km/h (2 Bft) 100,00 %
27.05.2023 18:54 24,6 C 28,9 C 20,6 C 47 % 1021,4 hPa 0,0 l/m 2 min 0 min 335 W/m 9,7 km/h (2 Bft) 100,00 %
27.05.2023 18:56 24,6 C 29,4 C 20,6 C 47 % 1021,4 hPa 0,0 l/m 2 min 0 min 328 W/m 3,2 km/h (1 Bft) 100,00 %
27.05.2023 18:58 24,6 C 28,9 C 20,0 C 47 % 1021,3 hPa 0,0 l/m 2 min 0 min 322 W/m 6,4 km/h (2 Bft) 100,00 %
27.05.2023 19:00 24,6 C 29,4 C 20,0 C 48 % 1021,3 hPa 0,0 l/m 2 min 0 min 317 W/m 6,4 km/h (2 Bft) 100,00 %
27.05.2023 19:02 24,6 C 29,4 C 20,0 C 48 % 1021,3 hPa 0,0 l/m 2 min 0 min 310 W/m 6,4 km/h (2 Bft) 100,00 %
27.05.2023 19:04 24,6 C 29,4 C 20,0 C 48 % 1021,3 hPa 0,0 l/m 2 min 0 min 304 W/m 9,7 km/h (2 Bft) 100,00 %
27.05.2023 19:06 24,5 C 28,9 C 19,4 C 49 % 1021,3 hPa 0,0 l/m 2 min 0 min 298 W/m 3,2 km/h (1 Bft) 97,87 %
27.05.2023 19:08 24,5 C 28,9 C 19,4 C 49 % 1021,3 hPa 0,0 l/m 2 min 0 min 292 W/m 9,7 km/h (2 Bft) 97,87 %
27.05.2023 19:10 24,5 C 28,3 C 19,4 C 48 % 1021,3 hPa 0,0 l/m 2 min 0 min 285 W/m 6,4 km/h (2 Bft) 97,87 %
27.05.2023 19:12 24,4 C 28,3 C 18,9 C 49 % 1021,4 hPa 0,0 l/m 2 min 0 min 278 W/m 6,4 km/h (2 Bft) 100,00 %
27.05.2023 19:14 24,3 C 28,3 C 18,9 C 50 % 1021,3 hPa 0,0 l/m 2 min 0 min 272 W/m 9,7 km/h (2 Bft) 100,00 %
27.05.2023 19:16 24,3 C 27,8 C 18,9 C 49 % 1021,4 hPa 0,0 l/m 2 min 0 min 266 W/m 6,4 km/h (2 Bft) 100,00 %
27.05.2023 19:18 24,2 C 27,8 C 18,9 C 50 % 1021,3 hPa 0,0 l/m 2 min 0 min 262 W/m 6,4 km/h (2 Bft) 100,00 %
27.05.2023 19:20 24,0 C 27,2 C 18,3 C 50 % 1021,3 hPa 0,0 l/m 2 min 0 min 255 W/m 9,7 km/h (2 Bft) 100,00 %
27.05.2023 19:22 23,9 C 26,7 C 18,3 C 49 % 1021,3 hPa 0,0 l/m 2 min 0 min 247 W/m 12,9 km/h (3 Bft) 100,00 %
27.05.2023 19:24 23,8 C 25,6 C 18,3 C 49 % 1021,2 hPa 0,0 l/m 2 min 0 min 241 W/m 6,4 km/h (2 Bft) 100,00 %
27.05.2023 19:26 23,7 C 24,4 C 18,3 C 49 % 1021,3 hPa 0,0 l/m 2 min 0 min 234 W/m 6,4 km/h (2 Bft) 97,83 %
27.05.2023 19:28 23,6 C 23,9 C 18,3 C 49 % 1021,2 hPa 0,0 l/m 2 min 0 min 227 W/m 6,4 km/h (2 Bft) 100,00 %
27.05.2023 19:30 23,5 C 23,3 C 18,3 C 50 % 1021,2 hPa 0,0 l/m 2 min 0 min 221 W/m 6,4 km/h (2 Bft) 100,00 %
27.05.2023 19:32 23,4 C 22,8 C 18,3 C 51 % 1021,2 hPa 0,0 l/m 2 min 0 min 215 W/m 9,7 km/h (2 Bft) 100,00 %
27.05.2023 19:34 23,4 C 22,8 C 18,3 C 50 % 1021,2 hPa 0,0 l/m 2 min 0 min 208 W/m 6,4 km/h (2 Bft) 100,00 %
27.05.2023 19:36 23,3 C 22,8 C 18,3 C 50 % 1021,2 hPa 0,0 l/m 2 min 0 min 202 W/m 6,4 km/h (2 Bft) 100,00 %
27.05.2023 19:38 23,2 C 22,8 C 17,8 C 51 % 1021,2 hPa 0,0 l/m 2 min 0 min 197 W/m 6,4 km/h (2 Bft) 100,00 %
27.05.2023 19:40 23,1 C 22,2 C 17,8 C 52 % 1021,2 hPa 0,0 l/m 2 min 0 min 190 W/m 9,7 km/h (2 Bft) 97,87 %
27.05.2023 19:42 23,0 C 22,2 C 17,8 C 50 % 1021,2 hPa 0,0 l/m 2 min 0 min 178 W/m 6,4 km/h (2 Bft) 100,00 %
27.05.2023 19:44 22,9 C 22,2 C 17,8 C 51 % 1021,2 hPa 0,0 l/m 2 min 0 min 124 W/m 6,4 km/h (2 Bft) 100,00 %
27.05.2023 19:46 22,8 C 22,2 C 17,8 C 52 % 1021,2 hPa 0,0 l/m 0 min 0 min 72 W/m 6,4 km/h (2 Bft) 100,00 %
27.05.2023 19:48 22,8 C 22,2 C 17,8 C 51 % 1021,2 hPa 0,0 l/m 0 min 0 min 65 W/m 6,4 km/h (2 Bft) 100,00 %
27.05.2023 19:50 22,7 C 22,2 C 17,8 C 52 % 1021,2 hPa 0,0 l/m 0 min 0 min 63 W/m 9,7 km/h (2 Bft) 95,74 %
27.05.2023 19:52 22,6 C 21,7 C 17,8 C 51 % 1021,2 hPa 0,0 l/m 0 min 0 min 62 W/m 6,4 km/h (2 Bft) 95,65 %
27.05.2023 19:54 22,5 C 21,7 C 17,8 C 51 % 1021,2 hPa 0,0 l/m 0 min 0 min 62 W/m 6,4 km/h (2 Bft) 97,87 %
27.05.2023 19:56 22,4 C 21,7 C 17,8 C 52 % 1021,2 hPa 0,0 l/m 0 min 0 min 60 W/m 9,7 km/h (2 Bft) 97,87 %
27.05.2023 19:58 22,4 C 21,7 C 17,8 C 51 % 1021,2 hPa 0,0 l/m 0 min 0 min 59 W/m 6,4 km/h (2 Bft) 97,87 %
27.05.2023 20:00 22,3 C 21,7 C 17,8 C 52 % 1021,1 hPa 0,0 l/m 0 min 0 min 57 W/m 6,4 km/h (2 Bft) 97,87 %
27.05.2023 20:02 22,2 C 21,7 C 17,8 C 51 % 1021,2 hPa 0,0 l/m 0 min 0 min 56 W/m 9,7 km/h (2 Bft) 95,74 %
27.05.2023 20:04 22,2 C 21,1 C 17,2 C 52 % 1021,2 hPa 0,0 l/m 0 min 0 min 54 W/m 9,7 km/h (2 Bft) 97,92 %
27.05.2023 20:06 22,2 C 21,1 C 17,2 C 52 % 1021,1 hPa 0,0 l/m 0 min 0 min 53 W/m 6,4 km/h (2 Bft) 97,83 %
27.05.2023 20:08 22,1 C 21,1 C 17,2 C 52 % 1021,2 hPa 0,0 l/m 0 min 0 min 53 W/m 9,7 km/h (2 Bft) 93,62 %
27.05.2023 20:10 22,1 C 21,1 C 17,2 C 52 % 1021,2 hPa 0,0 l/m 0 min 0 min 51 W/m 6,4 km/h (2 Bft) 95,74 %
27.05.2023 20:12 22,1 C 21,1 C 17,2 C 52 % 1021,2 hPa 0,0 l/m 0 min 0 min 49 W/m 6,4 km/h (2 Bft) 93,62 %
27.05.2023 20:14 22,0 C 21,1 C 17,2 C 52 % 1021,2 hPa 0,0 l/m 0 min 0 min 48 W/m 6,4 km/h (2 Bft) 95,74 %
27.05.2023 20:16 22,0 C 21,1 C 17,2 C 54 % 1021,1 hPa 0,0 l/m 0 min 0 min 47 W/m 6,4 km/h (2 Bft) 95,74 %
27.05.2023 20:18 21,9 C 21,1 C 17,2 C 54 % 1021,1 hPa 0,0 l/m 0 min 0 min 46 W/m 6,4 km/h (2 Bft) 95,74 %
27.05.2023 20:20 21,8 C 20,6 C 16,7 C 55 % 1021,1 hPa 0,0 l/m 0 min 0 min 44 W/m 6,4 km/h (2 Bft) 95,65 %
27.05.2023 20:22 21,7 C 20,6 C 16,7 C 55 % 1021,1 hPa 0,0 l/m 0 min 0 min 43 W/m 6,4 km/h (2 Bft) 93,62 %
27.05.2023 20:24 21,7 C 20,6 C 16,7 C 55 % 1021,1 hPa 0,0 l/m 0 min 0 min 42 W/m 6,4 km/h (2 Bft) 95,74 %
27.05.2023 20:26 21,6 C 20,6 C 16,7 C 56 % 1021,2 hPa 0,0 l/m 0 min 0 min 40 W/m 6,4 km/h (2 Bft) 93,62 %
27.05.2023 20:28 21,5 C 20,6 C 16,7 C 56 % 1021,2 hPa 0,0 l/m 0 min 0 min 39 W/m 3,2 km/h (1 Bft) 93,62 %
27.05.2023 20:30 21,4 C 20,0 C 16,7 C 56 % 1021,1 hPa 0,0 l/m 0 min 0 min 38 W/m 3,2 km/h (1 Bft) 93,62 %
27.05.2023 20:32 21,3 C 20,0 C 16,1 C 57 % 1021,1 hPa 0,0 l/m 0 min 0 min 37 W/m 3,2 km/h (1 Bft) 97,87 %
27.05.2023 20:34 21,3 C 20,0 C 16,1 C 58 % 1021,2 hPa 0,0 l/m 0 min 0 min 35 W/m 3,2 km/h (1 Bft) 93,48 %
27.05.2023 20:36 21,2 C 20,0 C 16,1 C 58 % 1021,2 hPa 0,0 l/m 0 min 0 min 33 W/m 0,0 km/h (0 Bft) 97,87 %
27.05.2023 20:38 21,1 C 20,0 C 16,1 C 59 % 1021,1 hPa 0,0 l/m 0 min 0 min 33 W/m 0,0 km/h (0 Bft) 97,87 %
27.05.2023 20:40 21,1 C 20,0 C 16,1 C 59 % 1021,2 hPa 0,0 l/m 0 min 0 min 32 W/m 0,0 km/h (0 Bft) 100,00 %
27.05.2023 20:42 21,0 C 19,4 C 16,1 C 59 % 1021,2 hPa 0,0 l/m 0 min 0 min 30 W/m 3,2 km/h (1 Bft) 95,74 %
27.05.2023 20:44 20,9 C 19,4 C 16,1 C 58 % 1021,2 hPa 0,0 l/m 0 min 0 min 29 W/m 3,2 km/h (1 Bft) 97,87 %
27.05.2023 20:46 20,8 C 19,4 C 16,1 C 57 % 1021,2 hPa 0,0 l/m 0 min 0 min 28 W/m 6,4 km/h (2 Bft) 100,00 %
27.05.2023 20:48 20,8 C 19,4 C 16,1 C 57 % 1021,2 hPa 0,0 l/m 0 min 0 min 26 W/m 6,4 km/h (2 Bft) 100,00 %
27.05.2023 20:50 20,7 C 19,4 C 16,1 C 57 % 1021,3 hPa 0,0 l/m 0 min 0 min 26 W/m 6,4 km/h (2 Bft) 97,14 %
27.05.2023 20:52 20,7 C 19,4 C 16,1 C 57 % 1021,3 hPa 0,0 l/m 0 min 0 min 25 W/m 3,2 km/h (1 Bft) 100,00 %
27.05.2023 20:54 20,6 C 19,4 C 15,6 C 56 % 1021,2 hPa 0,0 l/m 0 min 0 min 23 W/m 3,2 km/h (1 Bft) 98,00 %
27.05.2023 20:56 20,6 C 19,4 C 15,6 C 56 % 1021,3 hPa 0,0 l/m 0 min 0 min 22 W/m 3,2 km/h (1 Bft) 97,87 %
27.05.2023 20:58 20,5 C 19,4 C 15,6 C 57 % 1021,2 hPa 0,0 l/m 0 min 0 min 21 W/m 3,2 km/h (1 Bft) 97,87 %
27.05.2023 21:00 20,4 C 18,9 C 15,6 C 58 % 1021,3 hPa 0,0 l/m 0 min 0 min 19 W/m 3,2 km/h (1 Bft) 97,87 %
27.05.2023 21:02 20,4 C 18,9 C 15,6 C 57 % 1021,3 hPa 0,0 l/m 0 min 0 min 18 W/m 3,2 km/h (1 Bft) 95,74 %
27.05.2023 21:04 20,3 C 18,9 C 15,6 C 58 % 1021,3 hPa 0,0 l/m 0 min 0 min 18 W/m 3,2 km/h (1 Bft) 95,65 %
27.05.2023 21:06 20,3 C 18,9 C 15,6 C 57 % 1021,3 hPa 0,0 l/m 0 min 0 min 16 W/m 3,2 km/h (1 Bft) 96,61 %
27.05.2023 21:08 20,3 C 18,9 C 15,6 C 58 % 1021,3 hPa 0,0 l/m 0 min 0 min 15 W/m 3,2 km/h (1 Bft) 97,14 %
27.05.2023 21:10 20,2 C 18,9 C 15,6 C 58 % 1021,3 hPa 0,0 l/m 0 min 0 min 14 W/m 3,2 km/h (1 Bft) 97,87 %
27.05.2023 21:12 20,1 C 18,9 C 15,0 C 59 % 1021,3 hPa 0,0 l/m 0 min 0 min 14 W/m 0,0 km/h (0 Bft) 97,87 %
27.05.2023 21:14 20,1 C 18,3 C 15,0 C 60 % 1021,2 hPa 0,0 l/m 0 min 0 min 12 W/m 0,0 km/h (0 Bft) 97,87 %
27.05.2023 21:16 20,1 C 18,3 C 15,0 C 61 % 1021,3 hPa 0,0 l/m 0 min 0 min 12 W/m 0,0 km/h (0 Bft) 97,83 %
27.05.2023 21:18 20,0 C 18,3 C 15,0 C 60 % 1021,3 hPa 0,0 l/m 0 min 0 min 11 W/m 0,0 km/h (0 Bft) 97,87 %
27.05.2023 21:20 19,9 C 18,3 C 15,0 C 60 % 1021,3 hPa 0,0 l/m 0 min 0 min 10 W/m 0,0 km/h (0 Bft) 95,74 %
27.05.2023 21:22 19,8 C 17,8 C 14,4 C 60 % 1021,3 hPa 0,0 l/m 0 min 0 min 9 W/m 0,0 km/h (0 Bft) 95,74 %
27.05.2023 21:24 19,8 C 17,8 C 14,4 C 61 % 1021,3 hPa 0,0 l/m 0 min 0 min 9 W/m 0,0 km/h (0 Bft) 97,87 %
27.05.2023 21:26 19,7 C 17,8 C 14,4 C 61 % 1021,3 hPa 0,0 l/m 0 min 0 min 7 W/m 0,0 km/h (0 Bft) 97,87 %
27.05.2023 21:28 19,6 C 17,8 C 14,4 C 61 % 1021,3 hPa 0,0 l/m 0 min 0 min 7 W/m 0,0 km/h (0 Bft) 97,87 %
27.05.2023 21:30 19,6 C 17,8 C 14,4 C 61 % 1021,2 hPa 0,0 l/m 0 min 0 min 6 W/m 0,0 km/h (0 Bft) 97,83 %
27.05.2023 21:32 19,5 C 17,8 C 14,4 C 60 % 1021,3 hPa 0,0 l/m 0 min 0 min 5 W/m 0,0 km/h (0 Bft) 95,74 %
27.05.2023 21:34 19,4 C 17,8 C 14,4 C 61 % 1021,3 hPa 0,0 l/m 0 min 0 min 5 W/m 0,0 km/h (0 Bft) 97,87 %
27.05.2023 21:36 19,3 C 17,2 C 14,4 C 61 % 1021,3 hPa 0,0 l/m 0 min 0 min 2 W/m 0,0 km/h (0 Bft) 95,74 %
27.05.2023 21:38 19,3 C 17,2 C 13,9 C 62 % 1021,3 hPa 0,0 l/m 0 min 0 min 0 W/m 0,0 km/h (0 Bft) 100,00 %
27.05.2023 21:40 19,3 C 17,2 C 13,9 C 63 % 1021,3 hPa 0,0 l/m 0 min 0 min 0 W/m 0,0 km/h (0 Bft) 100,00 %
27.05.2023 21:42 19,2 C 17,2 C 13,9 C 62 % 1021,3 hPa 0,0 l/m 0 min 0 min 0 W/m 0,0 km/h (0 Bft) 100,00 %
27.05.2023 21:44 19,1 C 17,2 C 13,9 C 62 % 1021,3 hPa 0,0 l/m 0 min 0 min 0 W/m 0,0 km/h (0 Bft) 100,00 %
27.05.2023 21:46 19,1 C 17,2 C 13,9 C 62 % 1021,4 hPa 0,0 l/m 0 min 0 min 0 W/m 0,0 km/h (0 Bft) 100,00 %
27.05.2023 21:48 19,0 C 17,2 C 13,9 C 62 % 1021,4 hPa 0,0 l/m 0 min 0 min 0 W/m 0,0 km/h (0 Bft) 100,00 %
27.05.2023 21:50 18,9 C 16,7 C 13,9 C 63 % 1021,4 hPa 0,0 l/m 0 min 0 min 0 W/m 0,0 km/h (0 Bft) 100,00 %
27.05.2023 21:52 18,8 C 16,7 C 13,3 C 63 % 1021,4 hPa 0,0 l/m 0 min 0 min 0 W/m 0,0 km/h (0 Bft) 100,00 %
27.05.2023 21:54 18,8 C 16,7 C 13,3 C 64 % 1021,4 hPa 0,0 l/m 0 min 0 min 0 W/m 0,0 km/h (0 Bft) 95,74 %
27.05.2023 21:56 18,7 C 16,7 C 13,3 C 64 % 1021,3 hPa 0,0 l/m 0 min 0 min 0 W/m 0,0 km/h (0 Bft) 100,00 %
27.05.2023 21:58 18,7 C 16,7 C 13,3 C 65 % 1021,3 hPa 0,0 l/m 0 min 0 min 0 W/m 0,0 km/h (0 Bft) 97,87 %
27.05.2023 22:00 18,6 C 16,1 C 13,3 C 65 % 1021,3 hPa 0,0 l/m 0 min 0 min 0 W/m 0,0 km/h (0 Bft) 97,87 %
27.05.2023 22:02 18,5 C 16,1 C 12,8 C 65 % 1021,3 hPa 0,0 l/m 0 min 0 min 0 W/m 0,0 km/h (0 Bft) 93,62 %
27.05.2023 22:04 18,4 C 16,1 C 12,8 C 65 % 1021,4 hPa 0,0 l/m 0 min 0 min 0 W/m 0,0 km/h (0 Bft) 97,87 %
27.05.2023 22:06 18,3 C 16,1 C 12,8 C 66 % 1021,4 hPa 0,0 l/m 0 min 0 min 0 W/m 0,0 km/h (0 Bft) 96,55 %
27.05.2023 22:08 18,3 C 16,1 C 12,8 C 67 % 1021,4 hPa 0,0 l/m 0 min 0 min 0 W/m 0,0 km/h (0 Bft) 97,22 %
27.05.2023 22:10 18,2 C 16,1 C 12,8 C 66 % 1021,5 hPa 0,0 l/m 0 min 0 min 0 W/m 0,0 km/h (0 Bft) 95,74 %
27.05.2023 22:12 18,2 C 16,1 C 12,8 C 65 % 1021,4 hPa 0,0 l/m 0 min 0 min 0 W/m 0,0 km/h (0 Bft) 97,83 %
27.05.2023 22:14 18,1 C 16,1 C 12,8 C 65 % 1021,5 hPa 0,0 l/m 0 min 0 min 0 W/m 0,0 km/h (0 Bft) 95,74 %
27.05.2023 22:16 18,1 C 16,1 C 12,8 C 65 % 1021,5 hPa 0,0 l/m 0 min 0 min 0 W/m 0,0 km/h (0 Bft) 95,74 %
27.05.2023 22:18 18,0 C 16,1 C 12,8 C 66 % 1021,4 hPa 0,0 l/m 0 min 0 min 0 W/m 0,0 km/h (0 Bft) 97,87 %
27.05.2023 22:20 17,9 C 15,6 C 12,2 C 66 % 1021,4 hPa 0,0 l/m 0 min 0 min 0 W/m 0,0 km/h (0 Bft) 97,87 %
27.05.2023 22:22 17,9 C 15,6 C 12,2 C 67 % 1021,4 hPa 0,0 l/m 0 min 0 min 0 W/m 0,0 km/h (0 Bft) 95,74 %
27.05.2023 22:24 17,8 C 15,6 C 12,2 C 67 % 1021,4 hPa 0,0 l/m 0 min 0 min 0 W/m 0,0 km/h (0 Bft) 97,83 %
27.05.2023 22:26 17,8 C 15,6 C 12,2 C 67 % 1021,4 hPa 0,0 l/m 0 min 0 min 0 W/m 0,0 km/h (0 Bft) 97,87 %
27.05.2023 22:28 17,7 C 15,6 C 12,2 C 67 % 1021,3 hPa 0,0 l/m 0 min 0 min 0 W/m 0,0 km/h (0 Bft) 97,87 %
27.05.2023 22:30 17,7 C 15,6 C 12,2 C 68 % 1021,3 hPa 0,0 l/m 0 min 0 min 0 W/m 0,0 km/h (0 Bft) 100,00 %
27.05.2023 22:32 17,6 C 15,6 C 12,2 C 68 % 1021,3 hPa 0,0 l/m 0 min 0 min 0 W/m 0,0 km/h (0 Bft) 100,00 %
27.05.2023 22:34 17,6 C 15,6 C 12,2 C 68 % 1021,3 hPa 0,0 l/m 0 min 0 min 0 W/m 0,0 km/h (0 Bft) 95,74 %
27.05.2023 22:36 17,5 C 15,6 C 12,2 C 68 % 1021,3 hPa 0,0 l/m 0 min 0 min 0 W/m 0,0 km/h (0 Bft) 100,00 %
27.05.2023 22:38 17,4 C 15,6 C 11,7 C 69 % 1021,3 hPa 0,0 l/m 0 min 0 min 0 W/m 0,0 km/h (0 Bft) 100,00 %
27.05.2023 22:40 17,4 C 15,0 C 11,7 C 69 % 1021,3 hPa 0,0 l/m 0 min 0 min 0 W/m 0,0 km/h (0 Bft) 97,87 %
27.05.2023 22:42 17,3 C 15,0 C 11,7 C 69 % 1021,3 hPa 0,0 l/m 0 min 0 min 0 W/m 0,0 km/h (0 Bft) 100,00 %
27.05.2023 22:44 17,3 C 15,0 C 11,7 C 69 % 1021,3 hPa 0,0 l/m 0 min 0 min 0 W/m 0,0 km/h (0 Bft) 100,00 %
27.05.2023 22:46 17,2 C 15,0 C 11,7 C 69 % 1021,3 hPa 0,0 l/m 0 min 0 min 0 W/m 0,0 km/h (0 Bft) 96,00 %
27.05.2023 22:48 17,2 C 15,0 C 11,7 C 69 % 1021,3 hPa 0,0 l/m 0 min 0 min 0 W/m 0,0 km/h (0 Bft) 100,00 %
27.05.2023 22:50 17,1 C 15,0 C 11,7 C 70 % 1021,3 hPa 0,0 l/m 0 min 0 min 0 W/m 0,0 km/h (0 Bft) 97,83 %
27.05.2023 22:52 17,1 C 15,0 C 11,7 C 70 % 1021,3 hPa 0,0 l/m 0 min 0 min 0 W/m 0,0 km/h (0 Bft) 98,00 %
27.05.2023 22:54 17,0 C 15,0 C 11,7 C 70 % 1021,3 hPa 0,0 l/m 0 min 0 min 0 W/m 0,0 km/h (0 Bft) 97,92 %
27.05.2023 22:56 17,0 C 15,0 C 11,7 C 70 % 1021,2 hPa 0,0 l/m 0 min 0 min 0 W/m 0,0 km/h (0 Bft) 93,62 %
27.05.2023 22:58 16,9 C 14,4 C 11,7 C 70 % 1021,3 hPa 0,0 l/m 0 min 0 min 0 W/m 0,0 km/h (0 Bft) 97,87 %
27.05.2023 23:00 16,9 C 14,4 C 11,7 C 70 % 1021,2 hPa 0,0 l/m 0 min 0 min 0 W/m 0,0 km/h (0 Bft) 97,14 %
27.05.2023 23:02 16,8 C 15,0 C 11,7 C 70 % 1021,2 hPa 0,0 l/m 0 min 0 min 0 W/m 0,0 km/h (0 Bft) 94,23 %
27.05.2023 23:04 16,8 C 15,0 C 11,7 C 70 % 1021,2 hPa 0,0 l/m 0 min 0 min 0 W/m 0,0 km/h (0 Bft) 95,45 %
27.05.2023 23:06 16,7 C 15,0 C 11,7 C 70 % 1021,2 hPa 0,0 l/m 0 min 0 min 0 W/m 0,0 km/h (0 Bft) 95,65 %
27.05.2023 23:08 16,7 C 14,4 C 11,1 C 70 % 1021,2 hPa 0,0 l/m 0 min 0 min 0 W/m 0,0 km/h (0 Bft) 97,87 %
27.05.2023 23:10 16,6 C 15,0 C 11,1 C 70 % 1021,2 hPa 0,0 l/m 0 min 0 min 0 W/m 0,0 km/h (0 Bft) 93,62 %
27.05.2023 23:12 16,6 C 15,0 C 11,1 C 70 % 1021,1 hPa 0,0 l/m 0 min 0 min 0 W/m 0,0 km/h (0 Bft) 93,62 %
27.05.2023 23:14 16,5 C 15,0 C 11,1 C 70 % 1021,1 hPa 0,0 l/m 0 min 0 min 0 W/m 0,0 km/h (0 Bft) 95,74 %
27.05.2023 23:16 16,4 C 15,0 C 11,1 C 70 % 1021,1 hPa 0,0 l/m 0 min 0 min 0 W/m 0,0 km/h (0 Bft) 93,62 %
27.05.2023 23:18 16,4 C 14,4 C 11,1 C 71 % 1021,1 hPa 0,0 l/m 0 min 0 min 0 W/m 0,0 km/h (0 Bft) 95,65 %
27.05.2023 23:20 16,4 C 14,4 C 11,1 C 71 % 1021,1 hPa 0,0 l/m 0 min 0 min 0 W/m 0,0 km/h (0 Bft) 95,74 %
27.05.2023 23:22 16,3 C 14,4 C 11,1 C 71 % 1021,2 hPa 0,0 l/m 0 min 0 min 0 W/m 0,0 km/h (0 Bft) 92,73 %
27.05.2023 23:24 16,3 C 14,4 C 11,1 C 71 % 1021,1 hPa 0,0 l/m 0 min 0 min 0 W/m 0,0 km/h (0 Bft) 94,74 %
27.05.2023 23:26 16,3 C 14,4 C 11,1 C 71 % 1021,1 hPa 0,0 l/m 0 min 0 min 0 W/m 0,0 km/h (0 Bft) 91,67 %
27.05.2023 23:28 16,2 C 14,4 C 11,1 C 72 % 1021,2 hPa 0,0 l/m 0 min 0 min 0 W/m 0,0 km/h (0 Bft) 91,49 %
27.05.2023 23:30 16,2 C 14,4 C 11,1 C 72 % 1021,1 hPa 0,0 l/m 0 min 0 min 0 W/m 0,0 km/h (0 Bft) 95,65 %
27.05.2023 23:32 16,2 C 14,4 C 11,1 C 72 % 1021,1 hPa 0,0 l/m 0 min 0 min 0 W/m 0,0 km/h (0 Bft) 95,74 %
27.05.2023 23:34 16,1 C 14,4 C 11,1 C 73 % 1021,1 hPa 0,0 l/m 0 min 0 min 0 W/m 0,0 km/h (0 Bft) 93,62 %
27.05.2023 23:36 16,1 C 14,4 C 11,1 C 73 % 1021,1 hPa 0,0 l/m 0 min 0 min 0 W/m 0,0 km/h (0 Bft) 93,75 %
27.05.2023 23:38 16,0 C 14,4 C 11,1 C 73 % 1021,1 hPa 0,0 l/m 0 min 0 min 0 W/m 0,0 km/h (0 Bft) 89,36 %
27.05.2023 23:40 15,9 C 14,4 C 11,1 C 73 % 1021,1 hPa 0,0 l/m 0 min 0 min 0 W/m 0,0 km/h (0 Bft) 93,62 %
27.05.2023 23:42 15,9 C 14,4 C 11,1 C 73 % 1021,1 hPa 0,0 l/m 0 min 0 min 0 W/m 0,0 km/h (0 Bft) 93,62 %
27.05.2023 23:44 15,9 C 14,4 C 11,1 C 73 % 1021,1 hPa 0,0 l/m 0 min 0 min 0 W/m 0,0 km/h (0 Bft) 95,65 %
27.05.2023 23:46 15,8 C 14,4 C 11,1 C 73 % 1021,0 hPa 0,0 l/m 0 min 0 min 0 W/m 0,0 km/h (0 Bft) 95,56 %
27.05.2023 23:48 15,8 C 14,4 C 11,1 C 74 % 1021,0 hPa 0,0 l/m 0 min 0 min 0 W/m 0,0 km/h (0 Bft) 95,74 %
27.05.2023 23:50 15,7 C 14,4 C 11,1 C 73 % 1021,0 hPa 0,0 l/m 0 min 0 min 0 W/m 0,0 km/h (0 Bft) 95,74 %
27.05.2023 23:52 15,7 C 14,4 C 11,1 C 73 % 1021,0 hPa 0,0 l/m 0 min 0 min 0 W/m 0,0 km/h (0 Bft) 95,74 %
27.05.2023 23:54 15,7 C 14,4 C 11,1 C 73 % 1021,0 hPa 0,0 l/m 0 min 0 min 0 W/m 0,0 km/h (0 Bft) 97,87 %
27.05.2023 23:56 15,6 C 14,4 C 11,1 C 73 % 1021,0 hPa 0,0 l/m 0 min 0 min 0 W/m 0,0 km/h (0 Bft) 95,74 %
27.05.2023 23:58 15,6 C 14,4 C 11,1 C 73 % 1021,0 hPa 0,0 l/m 0 min 0 min 0 W/m 0,0 km/h (0 Bft) 95,65 %
_ Min-Zeit 05:58 05:00 05:08 15:52 23:46 - - - - 01:52 14:34
Minimum _ 8,3 C 7,8 C 4,4 C 43 % 1021,0 hPa - - - - 0,0 km/h (0 Bft) 89,13 %
_ Max-Zeit 17:30 15:06 13:08 06:48 00:00 00:00 12:08 00:00 13:52 13:28 00:18
Maximum _ 25,6 C 32,8 C 25,6 C 90 % 1028,9 hPa 0,0 l/m 4 min 0 min 943 W/m 22,5 km/h
W-NW (4 Bft)
100,00 %
Durchschnitt _ 17,1 C 19,0 C 13,4 C 66 % 1025,3 hPa #0,0 l/m #11:52 h #0 min. 503 W/m 7,7 km/h (2 Bft) 97,16 %
© 2023 W. Hausmann